<?xml version='1.0' encoding='UTF-8'?><gpx version="1.1" creator="JPX - https://github.com/jenetics/jpx" xmlns="http://www.topografix.com/GPX/1/1"><trk><trkseg><trkpt lat="45.59451206871728" lon="10.134442075826481"><ele>163.99999999999997</ele><time>2026-04-02T16:10:55.002Z</time></trkpt><trkpt lat="45.59452633295819" lon="10.134344354241174"><ele>164.0</ele><time>2026-04-02T16:11:00.001Z</time></trkpt><trkpt lat="45.5945462353879" lon="10.134247996691197"><ele>164.0</ele><time>2026-04-02T16:11:04.001Z</time></trkpt><trkpt lat="45.594552801845346" lon="10.134137116440733"><ele>164.0</ele><time>2026-04-02T16:11:08.001Z</time></trkpt><trkpt lat="45.59456425443015" lon="10.134045961874458"><ele>164.0</ele><time>2026-04-02T16:11:11.001Z</time></trkpt><trkpt lat="45.594569051592124" lon="10.133927753065707"><ele>163.99999999999997</ele><time>2026-04-02T16:11:15.001Z</time></trkpt><trkpt lat="45.59457652439209" lon="10.133825575401138"><ele>164.0</ele><time>2026-04-02T16:11:18Z</time></trkpt><trkpt lat="45.594595789763844" lon="10.13372997180081"><ele>163.99999999999997</ele><time>2026-04-02T16:11:21Z</time></trkpt><trkpt lat="45.594610723285776" lon="10.133632855699435"><ele>164.0</ele><time>2026-04-02T16:11:25Z</time></trkpt><trkpt lat="45.59462998685157" lon="10.133535288899116"><ele>164.0</ele><time>2026-04-02T16:11:28Z</time></trkpt><trkpt lat="45.59464424352113" lon="10.133442093362607"><ele>164.0</ele><time>2026-04-02T16:11:31Z</time></trkpt><trkpt lat="45.59467469544738" lon="10.13335156427181"><ele>164.0</ele><time>2026-04-02T16:11:34Z</time></trkpt><trkpt lat="45.59469343768298" lon="10.133251712436982"><ele>163.99999999999997</ele><time>2026-04-02T16:11:37Z</time></trkpt><trkpt lat="45.594707791903545" lon="10.133152264389235"><ele>164.0</ele><time>2026-04-02T16:11:40Z</time></trkpt><trkpt lat="45.59472053840045" lon="10.133043382520412"><ele>163.57142857142856</ele><time>2026-04-02T16:11:43Z</time></trkpt><trkpt lat="45.59473618797377" lon="10.132950724801352"><ele>163.14285714285714</ele><time>2026-04-02T16:11:46Z</time></trkpt><trkpt lat="45.59476467519383" lon="10.132843290449378"><ele>162.71428571428572</ele><time>2026-04-02T16:11:50Z</time></trkpt><trkpt lat="45.59478246230329" lon="10.13275443999759"><ele>162.28571428571428</ele><time>2026-04-02T16:11:53Z</time></trkpt><trkpt lat="45.59480949098255" lon="10.13263839348386"><ele>161.85714285714286</ele><time>2026-04-02T16:11:57Z</time></trkpt><trkpt lat="45.59482347891243" lon="10.132542991760369"><ele>161.42857142857142</ele><time>2026-04-02T16:12:00Z</time></trkpt><trkpt lat="45.59483973613236" lon="10.132453325820762"><ele>161.0</ele><time>2026-04-02T16:12:03Z</time></trkpt><trkpt lat="45.594865472523246" lon="10.132350932093425"><ele>160.85714285714286</ele><time>2026-04-02T16:12:06Z</time></trkpt><trkpt lat="45.59488218327236" lon="10.13225402187908"><ele>160.71428571428572</ele><time>2026-04-02T16:12:09Z</time></trkpt><trkpt lat="45.5949004477247" lon="10.13215507977356"><ele>160.57142857142856</ele><time>2026-04-02T16:12:13Z</time></trkpt><trkpt lat="45.59490200139545" lon="10.132048924132068"><ele>160.42857142857144</ele><time>2026-04-02T16:12:16Z</time></trkpt><trkpt lat="45.594924805961305" lon="10.131962188313178"><ele>160.28571428571428</ele><time>2026-04-02T16:12:19Z</time></trkpt><trkpt lat="45.594949701187595" lon="10.131871433200361"><ele>160.14285714285714</ele><time>2026-04-02T16:12:22Z</time></trkpt><trkpt lat="45.59497019933162" lon="10.131772752969464"><ele>160.0</ele><time>2026-04-02T16:12:25Z</time></trkpt><trkpt lat="45.59500790888291" lon="10.131675729471533"><ele>160.0</ele><time>2026-04-02T16:12:28Z</time></trkpt><trkpt lat="45.59507754142618" lon="10.131634106635113"><ele>160.0</ele><time>2026-04-02T16:12:31Z</time></trkpt><trkpt lat="45.595145486350845" lon="10.131612376580572"><ele>160.0</ele><time>2026-04-02T16:12:34Z</time></trkpt><trkpt lat="45.595238804917194" lon="10.131609661849733"><ele>160.0</ele><time>2026-04-02T16:12:38Z</time></trkpt><trkpt lat="45.595302050025246" lon="10.13162401979592"><ele>160.0</ele><time>2026-04-02T16:12:41Z</time></trkpt><trkpt lat="45.595367466936054" lon="10.131641148805096"><ele>160.0</ele><time>2026-04-02T16:12:44Z</time></trkpt><trkpt lat="45.59543746420699" lon="10.131648518043098"><ele>160.0</ele><time>2026-04-02T16:12:47Z</time></trkpt><trkpt lat="45.595511431899425" lon="10.13164917812706"><ele>160.71428571428572</ele><time>2026-04-02T16:12:50.001Z</time></trkpt><trkpt lat="45.595577662618176" lon="10.131630242378737"><ele>161.42857142857144</ele><time>2026-04-02T16:12:53.001Z</time></trkpt><trkpt lat="45.59564510300087" lon="10.131597765766994"><ele>162.14285714285717</ele><time>2026-04-02T16:12:56.001Z</time></trkpt><trkpt lat="45.59571278062238" lon="10.131623339891233"><ele>162.85714285714286</ele><time>2026-04-02T16:12:59.001Z</time></trkpt><trkpt lat="45.59576401716345" lon="10.131686882815057"><ele>163.57142857142858</ele><time>2026-04-02T16:13:02.001Z</time></trkpt><trkpt lat="45.59583092556073" lon="10.13173917816789"><ele>164.2857142857143</ele><time>2026-04-02T16:13:05.001Z</time></trkpt><trkpt lat="45.595897976428795" lon="10.131801800546722"><ele>165.0</ele><time>2026-04-02T16:13:08.001Z</time></trkpt><trkpt lat="45.59595816781765" lon="10.131848938165056"><ele>165.00000000000003</ele><time>2026-04-02T16:13:11.001Z</time></trkpt><trkpt lat="45.5960143530204" lon="10.13190574364847"><ele>165.0</ele><time>2026-04-02T16:13:14.001Z</time></trkpt><trkpt lat="45.596074886801965" lon="10.131952670046628"><ele>165.0</ele><time>2026-04-02T16:13:17.001Z</time></trkpt><trkpt lat="45.59613263861518" lon="10.132015924876821"><ele>165.0</ele><time>2026-04-02T16:13:20.001Z</time></trkpt><trkpt lat="45.59620230143089" lon="10.132075135434873"><ele>165.0</ele><time>2026-04-02T16:13:23.001Z</time></trkpt><trkpt lat="45.596262811498356" lon="10.132143598275647"><ele>165.00000000000003</ele><time>2026-04-02T16:13:26.001Z</time></trkpt><trkpt lat="45.59632645346464" lon="10.132189524413674"><ele>165.0</ele><time>2026-04-02T16:13:30.001Z</time></trkpt><trkpt lat="45.59639048338036" lon="10.132166754280767"><ele>165.33333333333334</ele><time>2026-04-02T16:13:35.001Z</time></trkpt><trkpt lat="45.59644603680775" lon="10.13211229707744"><ele>165.66666666666666</ele><time>2026-04-02T16:13:38.001Z</time></trkpt><trkpt lat="45.59649452646512" lon="10.132013757889544"><ele>166.0</ele><time>2026-04-02T16:13:41.001Z</time></trkpt><trkpt lat="45.59654554732337" lon="10.131940697173807"><ele>166.33333333333331</ele><time>2026-04-02T16:13:44.001Z</time></trkpt><trkpt lat="45.596603409005624" lon="10.131861711590219"><ele>166.66666666666666</ele><time>2026-04-02T16:13:47.001Z</time></trkpt><trkpt lat="45.5966441650793" lon="10.131772341921216"><ele>167.0</ele><time>2026-04-02T16:13:50.001Z</time></trkpt><trkpt lat="45.59666711703398" lon="10.13167341055462"><ele>167.0</ele><time>2026-04-02T16:13:53.001Z</time></trkpt><trkpt lat="45.59670225625762" lon="10.131565290777067"><ele>167.0</ele><time>2026-04-02T16:13:56.001Z</time></trkpt><trkpt lat="45.59672906696672" lon="10.131458697929459"><ele>167.0</ele><time>2026-04-02T16:13:59.001Z</time></trkpt><trkpt lat="45.59675437901323" lon="10.131357142693478"><ele>167.0</ele><time>2026-04-02T16:14:02.001Z</time></trkpt><trkpt lat="45.59678210627844" lon="10.131250114564887"><ele>167.0</ele><time>2026-04-02T16:14:05.001Z</time></trkpt><trkpt lat="45.59679294659002" lon="10.13114698931349"><ele>167.0</ele><time>2026-04-02T16:14:08.001Z</time></trkpt><trkpt lat="45.596802834519266" lon="10.131033188591763"><ele>166.5</ele><time>2026-04-02T16:14:11.001Z</time></trkpt><trkpt lat="45.596803979279265" lon="10.130916703279626"><ele>166.0</ele><time>2026-04-02T16:14:14.001Z</time></trkpt><trkpt lat="45.59680130521803" lon="10.13079749559074"><ele>165.5</ele><time>2026-04-02T16:14:17.001Z</time></trkpt><trkpt lat="45.59679294958806" lon="10.13068183569038"><ele>165.0</ele><time>2026-04-02T16:14:20.001Z</time></trkpt><trkpt lat="45.59679016050146" lon="10.130553710097004"><ele>164.5</ele><time>2026-04-02T16:14:23.001Z</time></trkpt><trkpt lat="45.59679084735227" lon="10.130444010422867"><ele>164.0</ele><time>2026-04-02T16:14:26.001Z</time></trkpt><trkpt lat="45.59679760361339" lon="10.130334944039209"><ele>163.83333333333331</ele><time>2026-04-02T16:14:29.001Z</time></trkpt><trkpt lat="45.596799317915846" lon="10.130225365901001"><ele>163.66666666666666</ele><time>2026-04-02T16:14:32.001Z</time></trkpt><trkpt lat="45.596811471493844" lon="10.130124279511834"><ele>163.5</ele><time>2026-04-02T16:14:35.001Z</time></trkpt><trkpt lat="45.5968131833009" lon="10.130013475956506"><ele>163.33333333333334</ele><time>2026-04-02T16:14:38.001Z</time></trkpt><trkpt lat="45.596823592007794" lon="10.129915843125827"><ele>163.16666666666669</ele><time>2026-04-02T16:14:41.001Z</time></trkpt><trkpt lat="45.59681940197925" lon="10.129796784736921"><ele>163.0</ele><time>2026-04-02T16:14:44.001Z</time></trkpt><trkpt lat="45.596823631735084" lon="10.129694618799963"><ele>163.0</ele><time>2026-04-02T16:14:47.001Z</time></trkpt><trkpt lat="45.59682703806634" lon="10.129589128157484"><ele>163.0</ele><time>2026-04-02T16:14:50.001Z</time></trkpt><trkpt lat="45.59682949053699" lon="10.129486424341923"><ele>163.0</ele><time>2026-04-02T16:14:53.001Z</time></trkpt><trkpt lat="45.59679091504689" lon="10.129388782439039"><ele>163.0</ele><time>2026-04-02T16:14:56.001Z</time></trkpt><trkpt lat="45.59676699106182" lon="10.129279185002215"><ele>163.0</ele><time>2026-04-02T16:14:59.001Z</time></trkpt><trkpt lat="45.59673458809492" lon="10.129187714191952"><ele>163.0</ele><time>2026-04-02T16:15:02.001Z</time></trkpt><trkpt lat="45.59672265901463" lon="10.129077884886431"><ele>162.71428571428572</ele><time>2026-04-02T16:15:05.001Z</time></trkpt><trkpt lat="45.59670004742351" lon="10.128977804777964"><ele>162.42857142857142</ele><time>2026-04-02T16:15:08.001Z</time></trkpt><trkpt lat="45.59668879487585" lon="10.128875579314716"><ele>162.14285714285714</ele><time>2026-04-02T16:15:11.001Z</time></trkpt><trkpt lat="45.59667018959164" lon="10.128768299930567"><ele>161.85714285714286</ele><time>2026-04-02T16:15:14.001Z</time></trkpt><trkpt lat="45.59665534531363" lon="10.12867148367703"><ele>161.57142857142856</ele><time>2026-04-02T16:15:17.001Z</time></trkpt><trkpt lat="45.59664151558442" lon="10.128563456319426"><ele>161.28571428571428</ele><time>2026-04-02T16:15:20.001Z</time></trkpt><trkpt lat="45.596629095418045" lon="10.128451202859784"><ele>161.0</ele><time>2026-04-02T16:15:23.001Z</time></trkpt><trkpt lat="45.5966122521733" lon="10.128350815253741"><ele>161.0</ele><time>2026-04-02T16:15:26.001Z</time></trkpt><trkpt lat="45.596604597516496" lon="10.128246036327944"><ele>161.0</ele><time>2026-04-02T16:15:29.001Z</time></trkpt><trkpt lat="45.59658642387313" lon="10.128145193713877"><ele>161.0</ele><time>2026-04-02T16:15:32.001Z</time></trkpt><trkpt lat="45.59657125806583" lon="10.128046833289156"><ele>161.0</ele><time>2026-04-02T16:15:35.001Z</time></trkpt><trkpt lat="45.596549878272114" lon="10.127943906313472"><ele>161.0</ele><time>2026-04-02T16:15:38.001Z</time></trkpt><trkpt lat="45.596528631249235" lon="10.127822719153434"><ele>161.0</ele><time>2026-04-02T16:15:42.001Z</time></trkpt><trkpt lat="45.59651873563721" lon="10.12771829364088"><ele>161.28571428571428</ele><time>2026-04-02T16:15:45.001Z</time></trkpt><trkpt lat="45.596502645972244" lon="10.127627146532165"><ele>161.57142857142856</ele><time>2026-04-02T16:15:48.001Z</time></trkpt><trkpt lat="45.59649673765819" lon="10.12752185537217"><ele>161.85714285714286</ele><time>2026-04-02T16:15:51.001Z</time></trkpt><trkpt lat="45.59649033184993" lon="10.127421035431967"><ele>162.14285714285714</ele><time>2026-04-02T16:15:54.001Z</time></trkpt><trkpt lat="45.596480974599565" lon="10.127315561341263"><ele>162.42857142857142</ele><time>2026-04-02T16:15:57.001Z</time></trkpt><trkpt lat="45.59647466360635" lon="10.12719360043212"><ele>162.71428571428572</ele><time>2026-04-02T16:16:01.001Z</time></trkpt><trkpt lat="45.59647393755079" lon="10.12709047392391"><ele>163.0</ele><time>2026-04-02T16:16:04.001Z</time></trkpt><trkpt lat="45.596472368127664" lon="10.126984222675812"><ele>163.2857142857143</ele><time>2026-04-02T16:16:07.001Z</time></trkpt><trkpt lat="45.5964727205042" lon="10.126861682186842"><ele>163.57142857142856</ele><time>2026-04-02T16:16:11.001Z</time></trkpt><trkpt lat="45.596481904879056" lon="10.126769059984575"><ele>163.85714285714286</ele><time>2026-04-02T16:16:14.001Z</time></trkpt><trkpt lat="45.59646667653046" lon="10.126655477062759"><ele>164.14285714285717</ele><time>2026-04-02T16:16:18.001Z</time></trkpt><trkpt lat="45.59646048645282" lon="10.126562076775635"><ele>164.42857142857144</ele><time>2026-04-02T16:16:21.001Z</time></trkpt><trkpt lat="45.596456339550315" lon="10.126463222618286"><ele>164.71428571428572</ele><time>2026-04-02T16:16:24.001Z</time></trkpt><trkpt lat="45.59646724130442" lon="10.126364820411355"><ele>165.0</ele><time>2026-04-02T16:16:27.001Z</time></trkpt><trkpt lat="45.59648906687632" lon="10.126269062504582"><ele>165.42857142857144</ele><time>2026-04-02T16:16:30.001Z</time></trkpt><trkpt lat="45.59652038587517" lon="10.126173806417443"><ele>165.85714285714286</ele><time>2026-04-02T16:16:33.001Z</time></trkpt><trkpt lat="45.5965334381129" lon="10.126057951117678"><ele>166.28571428571428</ele><time>2026-04-02T16:16:36.001Z</time></trkpt><trkpt lat="45.59654785930074" lon="10.125950656228502"><ele>166.71428571428572</ele><time>2026-04-02T16:16:39.001Z</time></trkpt><trkpt lat="45.596554678698496" lon="10.125856927637662"><ele>167.14285714285714</ele><time>2026-04-02T16:16:42.002Z</time></trkpt><trkpt lat="45.59656112273215" lon="10.125748622570724"><ele>167.57142857142858</ele><time>2026-04-02T16:16:45.002Z</time></trkpt><trkpt lat="45.59656314574461" lon="10.125655861849737"><ele>168.0</ele><time>2026-04-02T16:16:48.002Z</time></trkpt><trkpt lat="45.59657006674927" lon="10.125557711370847"><ele>168.0</ele><time>2026-04-02T16:16:51.002Z</time></trkpt><trkpt lat="45.596572747484046" lon="10.125454317953643"><ele>168.0</ele><time>2026-04-02T16:16:54.002Z</time></trkpt><trkpt lat="45.59656850736989" lon="10.125359999658135"><ele>168.0</ele><time>2026-04-02T16:16:57.002Z</time></trkpt><trkpt lat="45.596566193145264" lon="10.125257522433355"><ele>168.0</ele><time>2026-04-02T16:17:00.002Z</time></trkpt><trkpt lat="45.596569895948285" lon="10.125148508089968"><ele>168.0</ele><time>2026-04-02T16:17:03.002Z</time></trkpt><trkpt lat="45.59657325239724" lon="10.125047649430698"><ele>168.0</ele><time>2026-04-02T16:17:06.002Z</time></trkpt><trkpt lat="45.59659072801485" lon="10.124955895709753"><ele>168.0</ele><time>2026-04-02T16:17:09.002Z</time></trkpt><trkpt lat="45.59663508918988" lon="10.12486539078579"><ele>168.0</ele><time>2026-04-02T16:17:12.002Z</time></trkpt><trkpt lat="45.59664631328777" lon="10.124759756595143"><ele>168.0</ele><time>2026-04-02T16:17:15.002Z</time></trkpt><trkpt lat="45.596637159549346" lon="10.124660242612983"><ele>168.0</ele><time>2026-04-02T16:17:18.002Z</time></trkpt><trkpt lat="45.596622919831276" lon="10.124550969374466"><ele>168.0</ele><time>2026-04-02T16:17:22.002Z</time></trkpt><trkpt lat="45.59662170423383" lon="10.124440442000422"><ele>168.0</ele><time>2026-04-02T16:17:25.002Z</time></trkpt><trkpt lat="45.596601865983274" lon="10.124350204684793"><ele>168.0</ele><time>2026-04-02T16:17:28.002Z</time></trkpt><trkpt lat="45.59657811709214" lon="10.124255409712909"><ele>168.0</ele><time>2026-04-02T16:17:31.002Z</time></trkpt><trkpt lat="45.59655452144968" lon="10.124166200396306"><ele>168.0</ele><time>2026-04-02T16:17:34.002Z</time></trkpt><trkpt lat="45.59652122205575" lon="10.124080982514812"><ele>168.0</ele><time>2026-04-02T16:17:37.002Z</time></trkpt><trkpt lat="45.596538532788834" lon="10.123958835219904"><ele>168.0</ele><time>2026-04-02T16:17:40.002Z</time></trkpt><trkpt lat="45.59655068082481" lon="10.123840642186059"><ele>168.0</ele><time>2026-04-02T16:17:43.002Z</time></trkpt><trkpt lat="45.59654658964239" lon="10.123728014180784"><ele>168.0</ele><time>2026-04-02T16:17:46.002Z</time></trkpt><trkpt lat="45.59654235400002" lon="10.12362599523348"><ele>168.0</ele><time>2026-04-02T16:17:49.002Z</time></trkpt><trkpt lat="45.59654501521536" lon="10.123510970448812"><ele>168.0</ele><time>2026-04-02T16:17:52.002Z</time></trkpt><trkpt lat="45.59654081339451" lon="10.12339672042404"><ele>168.0</ele><time>2026-04-02T16:17:55.002Z</time></trkpt><trkpt lat="45.596542702304184" lon="10.123279364877796"><ele>168.0</ele><time>2026-04-02T16:17:58.002Z</time></trkpt><trkpt lat="45.59653405292356" lon="10.123172767056932"><ele>168.0</ele><time>2026-04-02T16:18:01.002Z</time></trkpt><trkpt lat="45.59652918942641" lon="10.123070816718997"><ele>168.0</ele><time>2026-04-02T16:18:04.002Z</time></trkpt><trkpt lat="45.59652580499198" lon="10.122965908049252"><ele>168.0</ele><time>2026-04-02T16:18:07.002Z</time></trkpt><trkpt lat="45.596512942516796" lon="10.122876284202912"><ele>168.0</ele><time>2026-04-02T16:18:10.002Z</time></trkpt><trkpt lat="45.596524277610904" lon="10.122771793384548"><ele>167.66666666666666</ele><time>2026-04-02T16:18:13.002Z</time></trkpt><trkpt lat="45.596533010778884" lon="10.122659903464962"><ele>167.33333333333334</ele><time>2026-04-02T16:18:16.002Z</time></trkpt><trkpt lat="45.5965310114553" lon="10.122552588357419"><ele>167.0</ele><time>2026-04-02T16:18:19.002Z</time></trkpt><trkpt lat="45.596541968521315" lon="10.122450676333969"><ele>166.66666666666669</ele><time>2026-04-02T16:18:22.002Z</time></trkpt><trkpt lat="45.59655576678263" lon="10.12234611160511"><ele>166.33333333333334</ele><time>2026-04-02T16:18:25.002Z</time></trkpt><trkpt lat="45.59658664255499" lon="10.122239748444576"><ele>166.0</ele><time>2026-04-02T16:18:28.002Z</time></trkpt><trkpt lat="45.59663732014335" lon="10.122142535744722"><ele>165.83333333333334</ele><time>2026-04-02T16:18:31.002Z</time></trkpt><trkpt lat="45.596668777491175" lon="10.122040411908792"><ele>165.66666666666669</ele><time>2026-04-02T16:18:34.002Z</time></trkpt><trkpt lat="45.59669448280515" lon="10.121944500561252"><ele>165.5</ele><time>2026-04-02T16:18:37.002Z</time></trkpt><trkpt lat="45.59671497930047" lon="10.121837115431898"><ele>165.33333333333334</ele><time>2026-04-02T16:18:40.002Z</time></trkpt><trkpt lat="45.596722319328606" lon="10.121736554897307"><ele>165.16666666666666</ele><time>2026-04-02T16:18:43.002Z</time></trkpt><trkpt lat="45.596740875975655" lon="10.121633748868234"><ele>165.0</ele><time>2026-04-02T16:18:46.002Z</time></trkpt><trkpt lat="45.59675660763748" lon="10.121525389851548"><ele>165.0</ele><time>2026-04-02T16:18:49.002Z</time></trkpt><trkpt lat="45.596759145219245" lon="10.121399932159562"><ele>165.0</ele><time>2026-04-02T16:18:53.002Z</time></trkpt><trkpt lat="45.59676781243452" lon="10.121293974437434"><ele>165.0</ele><time>2026-04-02T16:18:56.002Z</time></trkpt><trkpt lat="45.59678573074283" lon="10.121176917613953"><ele>165.0</ele><time>2026-04-02T16:18:59.002Z</time></trkpt><trkpt lat="45.59680086009385" lon="10.121079509501708"><ele>165.0</ele><time>2026-04-02T16:19:02.002Z</time></trkpt><trkpt lat="45.596805892009485" lon="10.120973906370029"><ele>165.0</ele><time>2026-04-02T16:19:05.002Z</time></trkpt><trkpt lat="45.59682271297777" lon="10.120873207106426"><ele>165.00000000000003</ele><time>2026-04-02T16:19:08.002Z</time></trkpt><trkpt lat="45.59682375695766" lon="10.120776786651547"><ele>165.0</ele><time>2026-04-02T16:19:11.002Z</time></trkpt><trkpt lat="45.59682206226072" lon="10.120674906633903"><ele>165.0</ele><time>2026-04-02T16:19:14.002Z</time></trkpt><trkpt lat="45.59681886377988" lon="10.120558682763733"><ele>165.0</ele><time>2026-04-02T16:19:18.002Z</time></trkpt><trkpt lat="45.5968337628019" lon="10.120458531254426"><ele>165.0</ele><time>2026-04-02T16:19:21.002Z</time></trkpt><trkpt lat="45.59685422133939" lon="10.120360928742308"><ele>165.00000000000003</ele><time>2026-04-02T16:19:24.002Z</time></trkpt><trkpt lat="45.59686096795532" lon="10.120254018169934"><ele>165.0</ele><time>2026-04-02T16:19:27.002Z</time></trkpt><trkpt lat="45.59686441018231" lon="10.120149780879549"><ele>165.16666666666666</ele><time>2026-04-02T16:19:30.002Z</time></trkpt><trkpt lat="45.59687385426653" lon="10.12004113364573"><ele>165.33333333333334</ele><time>2026-04-02T16:19:33.002Z</time></trkpt><trkpt lat="45.59688885383852" lon="10.119916789546002"><ele>165.5</ele><time>2026-04-02T16:19:36.002Z</time></trkpt><trkpt lat="45.59689701566159" lon="10.119815086578722"><ele>165.66666666666669</ele><time>2026-04-02T16:19:39.002Z</time></trkpt><trkpt lat="45.596893586894275" lon="10.119704752530364"><ele>165.83333333333334</ele><time>2026-04-02T16:19:42.002Z</time></trkpt><trkpt lat="45.59689209796708" lon="10.119596787744516"><ele>166.0</ele><time>2026-04-02T16:19:45.002Z</time></trkpt><trkpt lat="45.596901589839625" lon="10.119477333329362"><ele>166.42857142857142</ele><time>2026-04-02T16:19:48.002Z</time></trkpt><trkpt lat="45.59690600663597" lon="10.11937387506956"><ele>166.85714285714286</ele><time>2026-04-02T16:19:51.002Z</time></trkpt><trkpt lat="45.59691962878546" lon="10.11926577459712"><ele>167.28571428571428</ele><time>2026-04-02T16:19:54.002Z</time></trkpt><trkpt lat="45.59692650814445" lon="10.119168372886147"><ele>167.71428571428572</ele><time>2026-04-02T16:19:57.002Z</time></trkpt><trkpt lat="45.59692682429064" lon="10.119067838293956"><ele>168.14285714285714</ele><time>2026-04-02T16:20:00.002Z</time></trkpt><trkpt lat="45.596946401769394" lon="10.118961664808216"><ele>168.57142857142858</ele><time>2026-04-02T16:20:03.002Z</time></trkpt><trkpt lat="45.59697281253722" lon="10.118852591501485"><ele>169.0</ele><time>2026-04-02T16:20:06.002Z</time></trkpt><trkpt lat="45.59697602281567" lon="10.118762694077999"><ele>169.0</ele><time>2026-04-02T16:20:09.002Z</time></trkpt><trkpt lat="45.59697730251162" lon="10.118643168323679"><ele>169.0</ele><time>2026-04-02T16:20:13.002Z</time></trkpt><trkpt lat="45.596990324885425" lon="10.11854788892015"><ele>169.0</ele><time>2026-04-02T16:20:16.002Z</time></trkpt><trkpt lat="45.596992446795944" lon="10.11844915257817"><ele>169.0</ele><time>2026-04-02T16:20:19.002Z</time></trkpt><trkpt lat="45.59701478787354" lon="10.1183523219364"><ele>169.0</ele><time>2026-04-02T16:20:22.002Z</time></trkpt><trkpt lat="45.59702162796775" lon="10.118260846602482"><ele>169.0</ele><time>2026-04-02T16:20:25.002Z</time></trkpt><trkpt lat="45.5970276270879" lon="10.118164309374862"><ele>169.0</ele><time>2026-04-02T16:20:28.002Z</time></trkpt><trkpt lat="45.59702699744398" lon="10.118073959178387"><ele>169.14285714285714</ele><time>2026-04-02T16:20:31.002Z</time></trkpt><trkpt lat="45.59703393926667" lon="10.11797834451102"><ele>169.28571428571428</ele><time>2026-04-02T16:20:34.002Z</time></trkpt><trkpt lat="45.59703328470751" lon="10.117879565212963"><ele>169.42857142857144</ele><time>2026-04-02T16:20:37.003Z</time></trkpt><trkpt lat="45.59703107154835" lon="10.117775692281123"><ele>169.57142857142856</ele><time>2026-04-02T16:20:40.003Z</time></trkpt><trkpt lat="45.59704420894772" lon="10.117680563921448"><ele>169.7142857142857</ele><time>2026-04-02T16:20:43.003Z</time></trkpt><trkpt lat="45.597060755259974" lon="10.117582954785409"><ele>169.85714285714286</ele><time>2026-04-02T16:20:46.003Z</time></trkpt><trkpt lat="45.59708778118014" lon="10.117489570314646"><ele>170.0</ele><time>2026-04-02T16:20:49.003Z</time></trkpt><trkpt lat="45.597099247113725" lon="10.11738804475371"><ele>170.14285714285714</ele><time>2026-04-02T16:20:52.003Z</time></trkpt><trkpt lat="45.597111588681024" lon="10.117276022161157"><ele>170.28571428571428</ele><time>2026-04-02T16:20:55.003Z</time></trkpt><trkpt lat="45.597112331342835" lon="10.117172159115974"><ele>170.42857142857142</ele><time>2026-04-02T16:20:58.003Z</time></trkpt><trkpt lat="45.59711458994914" lon="10.117062433188586"><ele>170.57142857142856</ele><time>2026-04-02T16:21:01.003Z</time></trkpt><trkpt lat="45.597099914915184" lon="10.1169609505208"><ele>170.71428571428572</ele><time>2026-04-02T16:21:04.003Z</time></trkpt><trkpt lat="45.597099688326324" lon="10.116859044456366"><ele>170.85714285714283</ele><time>2026-04-02T16:21:07.003Z</time></trkpt><trkpt lat="45.597103568523046" lon="10.11675314293498"><ele>171.0</ele><time>2026-04-02T16:21:10.003Z</time></trkpt><trkpt lat="45.59709941947987" lon="10.116651460589214"><ele>171.14285714285714</ele><time>2026-04-02T16:21:13.003Z</time></trkpt><trkpt lat="45.59709326959946" lon="10.116555020071718"><ele>171.28571428571428</ele><time>2026-04-02T16:21:16.003Z</time></trkpt><trkpt lat="45.597085425161175" lon="10.116454518703268"><ele>171.42857142857144</ele><time>2026-04-02T16:21:19.003Z</time></trkpt><trkpt lat="45.59709418016815" lon="10.116348737000365"><ele>171.57142857142856</ele><time>2026-04-02T16:21:22.003Z</time></trkpt><trkpt lat="45.59708476819159" lon="10.116239478644069"><ele>171.71428571428572</ele><time>2026-04-02T16:21:25.003Z</time></trkpt><trkpt lat="45.597094568628265" lon="10.116134725949241"><ele>171.85714285714286</ele><time>2026-04-02T16:21:28.003Z</time></trkpt><trkpt lat="45.5970779146719" lon="10.116033486524618"><ele>172.0</ele><time>2026-04-02T16:21:31.003Z</time></trkpt><trkpt lat="45.597078079700886" lon="10.115927260150407"><ele>172.00000000000003</ele><time>2026-04-02T16:21:34.003Z</time></trkpt><trkpt lat="45.597073475604105" lon="10.11582572863775"><ele>172.0</ele><time>2026-04-02T16:21:37.003Z</time></trkpt><trkpt lat="45.59706449565347" lon="10.115724604626228"><ele>172.0</ele><time>2026-04-02T16:21:40.003Z</time></trkpt><trkpt lat="45.597044891559776" lon="10.115631485207832"><ele>172.0</ele><time>2026-04-02T16:21:43.003Z</time></trkpt><trkpt lat="45.59701929246466" lon="10.11553557484901"><ele>172.0</ele><time>2026-04-02T16:21:46.003Z</time></trkpt><trkpt lat="45.59700375416585" lon="10.11543582174997"><ele>172.00000000000003</ele><time>2026-04-02T16:21:49.003Z</time></trkpt><trkpt lat="45.59698343784508" lon="10.115344120038479"><ele>172.0</ele><time>2026-04-02T16:21:52.003Z</time></trkpt><trkpt lat="45.596962039983" lon="10.11525346768459"><ele>172.00000000000003</ele><time>2026-04-02T16:21:55.003Z</time></trkpt><trkpt lat="45.59696059994094" lon="10.115143579554912"><ele>172.0</ele><time>2026-04-02T16:21:58.003Z</time></trkpt><trkpt lat="45.596940229334685" lon="10.115040153535569"><ele>172.0</ele><time>2026-04-02T16:22:01.003Z</time></trkpt><trkpt lat="45.596929431894644" lon="10.11494665635093"><ele>172.0</ele><time>2026-04-02T16:22:04.003Z</time></trkpt><trkpt lat="45.59692003682131" lon="10.114846285397421"><ele>172.0</ele><time>2026-04-02T16:22:07.003Z</time></trkpt><trkpt lat="45.596899107599334" lon="10.11474842529563"><ele>172.00000000000003</ele><time>2026-04-02T16:22:10.003Z</time></trkpt><trkpt lat="45.59688543990184" lon="10.114645794023616"><ele>172.0</ele><time>2026-04-02T16:22:13.003Z</time></trkpt><trkpt lat="45.59687151333547" lon="10.114546917037673"><ele>172.00000000000003</ele><time>2026-04-02T16:22:16.003Z</time></trkpt><trkpt lat="45.5968652603233" lon="10.11445072553509"><ele>172.0</ele><time>2026-04-02T16:22:19.003Z</time></trkpt><trkpt lat="45.596849580002186" lon="10.114354749148033"><ele>172.0</ele><time>2026-04-02T16:22:22.003Z</time></trkpt><trkpt lat="45.59684233382872" lon="10.114250722817912"><ele>172.0</ele><time>2026-04-02T16:22:25.003Z</time></trkpt><trkpt lat="45.59682853415301" lon="10.114152564215383"><ele>172.0</ele><time>2026-04-02T16:22:28.003Z</time></trkpt><trkpt lat="45.59681639474497" lon="10.114056083304519"><ele>172.00000000000003</ele><time>2026-04-02T16:22:31.003Z</time></trkpt><trkpt lat="45.596808486075886" lon="10.11395555354472"><ele>172.0</ele><time>2026-04-02T16:22:34.003Z</time></trkpt><trkpt lat="45.59680337398387" lon="10.113861871848782"><ele>172.14285714285717</ele><time>2026-04-02T16:22:37.003Z</time></trkpt><trkpt lat="45.59678859586666" lon="10.11377158138364"><ele>172.28571428571428</ele><time>2026-04-02T16:22:40.003Z</time></trkpt><trkpt lat="45.596774351255974" lon="10.113653707959285"><ele>172.42857142857144</ele><time>2026-04-02T16:22:44.003Z</time></trkpt><trkpt lat="45.596776154198956" lon="10.113557816325972"><ele>172.57142857142858</ele><time>2026-04-02T16:22:47.003Z</time></trkpt><trkpt lat="45.59678423593108" lon="10.113459710010586"><ele>172.71428571428572</ele><time>2026-04-02T16:22:50.003Z</time></trkpt><trkpt lat="45.59679240976133" lon="10.11336478446469"><ele>172.85714285714286</ele><time>2026-04-02T16:22:53.003Z</time></trkpt><trkpt lat="45.59679276806927" lon="10.11326869222199"><ele>173.0</ele><time>2026-04-02T16:22:56.003Z</time></trkpt><trkpt lat="45.596798988439616" lon="10.1131741066241"><ele>173.0</ele><time>2026-04-02T16:22:59.003Z</time></trkpt><trkpt lat="45.59680072082534" lon="10.113072874078862"><ele>173.0</ele><time>2026-04-02T16:23:02.003Z</time></trkpt><trkpt lat="45.59680635673302" lon="10.112978215107352"><ele>173.0</ele><time>2026-04-02T16:23:05.003Z</time></trkpt><trkpt lat="45.596815412428214" lon="10.112876509565378"><ele>173.0</ele><time>2026-04-02T16:23:08.003Z</time></trkpt><trkpt lat="45.59683675850312" lon="10.112782767943388"><ele>173.0</ele><time>2026-04-02T16:23:11.003Z</time></trkpt><trkpt lat="45.59685174513482" lon="10.112693910096276"><ele>173.0</ele><time>2026-04-02T16:23:14.003Z</time></trkpt><trkpt lat="45.59686304693198" lon="10.112601116929795"><ele>173.0</ele><time>2026-04-02T16:23:17.003Z</time></trkpt><trkpt lat="45.59687996572625" lon="10.112504399888588"><ele>173.33333333333331</ele><time>2026-04-02T16:23:20.003Z</time></trkpt><trkpt lat="45.59691239066445" lon="10.112389868026883"><ele>173.66666666666666</ele><time>2026-04-02T16:23:24.003Z</time></trkpt><trkpt lat="45.59693021347027" lon="10.112287956407549"><ele>174.0</ele><time>2026-04-02T16:23:28.003Z</time></trkpt><trkpt lat="45.59697545041796" lon="10.11220121572946"><ele>174.33333333333334</ele><time>2026-04-02T16:23:31.003Z</time></trkpt><trkpt lat="45.59701759195386" lon="10.112128007433656"><ele>174.66666666666669</ele><time>2026-04-02T16:23:34.003Z</time></trkpt><trkpt lat="45.59707750482526" lon="10.11204673093765"><ele>175.0</ele><time>2026-04-02T16:23:38.003Z</time></trkpt><trkpt lat="45.59712358160269" lon="10.111976309823602"><ele>175.28571428571428</ele><time>2026-04-02T16:23:41.003Z</time></trkpt><trkpt lat="45.59716657449297" lon="10.111905216229683"><ele>175.57142857142856</ele><time>2026-04-02T16:23:44.003Z</time></trkpt><trkpt lat="45.597199146078935" lon="10.111810241527524"><ele>175.85714285714286</ele><time>2026-04-02T16:23:47.003Z</time></trkpt><trkpt lat="45.59721882531437" lon="10.11170563806486"><ele>176.14285714285714</ele><time>2026-04-02T16:23:50.003Z</time></trkpt><trkpt lat="45.59724503119766" lon="10.111617426627939"><ele>176.42857142857142</ele><time>2026-04-02T16:23:53.003Z</time></trkpt><trkpt lat="45.59727771915044" lon="10.111539225063947"><ele>176.71428571428572</ele><time>2026-04-02T16:23:56.003Z</time></trkpt><trkpt lat="45.59731300643504" lon="10.111459493877195"><ele>177.0</ele><time>2026-04-02T16:23:59.003Z</time></trkpt><trkpt lat="45.59735966641798" lon="10.111381384889533"><ele>177.0</ele><time>2026-04-02T16:24:02.003Z</time></trkpt><trkpt lat="45.59740820752215" lon="10.111303540711134"><ele>177.0</ele><time>2026-04-02T16:24:05.003Z</time></trkpt><trkpt lat="45.597453523513686" lon="10.111233752868577"><ele>177.0</ele><time>2026-04-02T16:24:08.003Z</time></trkpt><trkpt lat="45.59748631722244" lon="10.11114251939411"><ele>177.0</ele><time>2026-04-02T16:24:11.003Z</time></trkpt><trkpt lat="45.59752414330124" lon="10.111052425874657"><ele>177.0</ele><time>2026-04-02T16:24:14.003Z</time></trkpt><trkpt lat="45.59755972753855" lon="10.110953964837579"><ele>177.0</ele><time>2026-04-02T16:24:17.003Z</time></trkpt><trkpt lat="45.597582827810605" lon="10.110855902772657"><ele>177.0</ele><time>2026-04-02T16:24:20.003Z</time></trkpt><trkpt lat="45.597590882944274" lon="10.110753710638454"><ele>177.0</ele><time>2026-04-02T16:24:23.003Z</time></trkpt><trkpt lat="45.597653420452744" lon="10.110699910333695"><ele>177.0</ele><time>2026-04-02T16:24:26.003Z</time></trkpt><trkpt lat="45.59772124283677" lon="10.11076018381436"><ele>177.0</ele><time>2026-04-02T16:24:29.004Z</time></trkpt><trkpt lat="45.597769220391605" lon="10.11083904676789"><ele>177.0</ele><time>2026-04-02T16:24:32.004Z</time></trkpt><trkpt lat="45.5978263452495" lon="10.110895187989872"><ele>177.0</ele><time>2026-04-02T16:24:35.004Z</time></trkpt><trkpt lat="45.59788757409639" lon="10.110936656376266"><ele>177.0</ele><time>2026-04-02T16:24:38.004Z</time></trkpt><trkpt lat="45.597954833412615" lon="10.1109679033861"><ele>177.0</ele><time>2026-04-02T16:24:41.004Z</time></trkpt><trkpt lat="45.598031186346624" lon="10.110991615627631"><ele>176.5</ele><time>2026-04-02T16:24:44.004Z</time></trkpt><trkpt lat="45.598108857592486" lon="10.110990119019062"><ele>176.0</ele><time>2026-04-02T16:24:47.004Z</time></trkpt><trkpt lat="45.5981823743141" lon="10.1110075809355"><ele>175.5</ele><time>2026-04-02T16:24:50.004Z</time></trkpt><trkpt lat="45.59824370049311" lon="10.111078509078919"><ele>175.0</ele><time>2026-04-02T16:24:53.004Z</time></trkpt><trkpt lat="45.598312069341574" lon="10.111133474325392"><ele>174.5</ele><time>2026-04-02T16:24:56.004Z</time></trkpt><trkpt lat="45.59837557644933" lon="10.111204936181638"><ele>174.0</ele><time>2026-04-02T16:24:59.004Z</time></trkpt><trkpt lat="45.598443044632916" lon="10.111270233826575"><ele>174.0</ele><time>2026-04-02T16:25:02.004Z</time></trkpt><trkpt lat="45.59850346720267" lon="10.111317171982856"><ele>174.0</ele><time>2026-04-02T16:25:05.004Z</time></trkpt><trkpt lat="45.59857770745895" lon="10.111375303266248"><ele>174.0</ele><time>2026-04-02T16:25:08.004Z</time></trkpt><trkpt lat="45.59865406739617" lon="10.11141447581314"><ele>174.0</ele><time>2026-04-02T16:25:11.004Z</time></trkpt><trkpt lat="45.598730004390774" lon="10.111443279189432"><ele>174.0</ele><time>2026-04-02T16:25:14.004Z</time></trkpt><trkpt lat="45.598804107974985" lon="10.111482004003731"><ele>174.0</ele><time>2026-04-02T16:25:17.004Z</time></trkpt><trkpt lat="45.59887880491974" lon="10.111520739517005"><ele>174.16666666666666</ele><time>2026-04-02T16:25:20.004Z</time></trkpt><trkpt lat="45.59895368810673" lon="10.111532524469071"><ele>174.33333333333334</ele><time>2026-04-02T16:25:23.004Z</time></trkpt><trkpt lat="45.599035861545865" lon="10.111540164372602"><ele>174.5</ele><time>2026-04-02T16:25:26.004Z</time></trkpt><trkpt lat="45.59911251038839" lon="10.111537436289154"><ele>174.66666666666669</ele><time>2026-04-02T16:25:29.004Z</time></trkpt><trkpt lat="45.599191543562455" lon="10.111526345181233"><ele>174.83333333333334</ele><time>2026-04-02T16:25:32.004Z</time></trkpt><trkpt lat="45.5992737040678" lon="10.111532899736186"><ele>175.0</ele><time>2026-04-02T16:25:35.004Z</time></trkpt><trkpt lat="45.599352181514156" lon="10.111512840588466"><ele>175.0</ele><time>2026-04-02T16:25:38.004Z</time></trkpt><trkpt lat="45.59943095660625" lon="10.11147889633112"><ele>175.0</ele><time>2026-04-02T16:25:41.004Z</time></trkpt><trkpt lat="45.59949393422153" lon="10.111429604554713"><ele>175.0</ele><time>2026-04-02T16:25:44.004Z</time></trkpt><trkpt lat="45.599553252626485" lon="10.111362035366305"><ele>175.0</ele><time>2026-04-02T16:25:47.004Z</time></trkpt><trkpt lat="45.599619625768455" lon="10.111292894998172"><ele>175.0</ele><time>2026-04-02T16:25:50.004Z</time></trkpt><trkpt lat="45.59967146974055" lon="10.11120830516051"><ele>175.0</ele><time>2026-04-02T16:25:53.004Z</time></trkpt><trkpt lat="45.5997222590984" lon="10.111117654394475"><ele>175.5</ele><time>2026-04-02T16:25:56.004Z</time></trkpt><trkpt lat="45.599772165721795" lon="10.111027170618035"><ele>176.0</ele><time>2026-04-02T16:25:59.004Z</time></trkpt><trkpt lat="45.599818629951606" lon="10.110938781893923"><ele>176.5</ele><time>2026-04-02T16:26:02.004Z</time></trkpt><trkpt lat="45.59986579672327" lon="10.110852875346987"><ele>177.0</ele><time>2026-04-02T16:26:05.004Z</time></trkpt><trkpt lat="45.59992726243099" lon="10.110775331327588"><ele>177.5</ele><time>2026-04-02T16:26:08.004Z</time></trkpt><trkpt lat="45.599988312501196" lon="10.1107157589161"><ele>178.0</ele><time>2026-04-02T16:26:11.004Z</time></trkpt><trkpt lat="45.60005645212319" lon="10.110665392881709"><ele>177.99999999999997</ele><time>2026-04-02T16:26:14.004Z</time></trkpt><trkpt lat="45.60012779264354" lon="10.110632592613998"><ele>178.0</ele><time>2026-04-02T16:26:17.004Z</time></trkpt><trkpt lat="45.60020017012843" lon="10.110609843692185"><ele>178.0</ele><time>2026-04-02T16:26:20.004Z</time></trkpt><trkpt lat="45.60027468628988" lon="10.11059595143138"><ele>178.0</ele><time>2026-04-02T16:26:23.004Z</time></trkpt><trkpt lat="45.60034104980325" lon="10.11058630954983"><ele>178.0</ele><time>2026-04-02T16:26:26.004Z</time></trkpt><trkpt lat="45.600410775556625" lon="10.110572892897002"><ele>177.99999999999997</ele><time>2026-04-02T16:26:29.004Z</time></trkpt><trkpt lat="45.600482358102646" lon="10.110563962111897"><ele>178.0</ele><time>2026-04-02T16:26:32.004Z</time></trkpt><trkpt lat="45.600549794215326" lon="10.110562387044983"><ele>177.85714285714283</ele><time>2026-04-02T16:26:35.004Z</time></trkpt><trkpt lat="45.60061711527311" lon="10.110559981453424"><ele>177.71428571428572</ele><time>2026-04-02T16:26:38.004Z</time></trkpt><trkpt lat="45.60069191350921" lon="10.110559633187796"><ele>177.57142857142856</ele><time>2026-04-02T16:26:41.004Z</time></trkpt><trkpt lat="45.6007637723904" lon="10.110566688085761"><ele>177.42857142857142</ele><time>2026-04-02T16:26:44.004Z</time></trkpt><trkpt lat="45.60083569151758" lon="10.110582852288548"><ele>177.28571428571428</ele><time>2026-04-02T16:26:47.004Z</time></trkpt><trkpt lat="45.60091204044597" lon="10.11059451776925"><ele>177.14285714285714</ele><time>2026-04-02T16:26:50.004Z</time></trkpt><trkpt lat="45.6009811916347" lon="10.110627257597436"><ele>177.0</ele><time>2026-04-02T16:26:53.004Z</time></trkpt><trkpt lat="45.60105346233743" lon="10.110654456992847"><ele>177.0</ele><time>2026-04-02T16:26:56.004Z</time></trkpt><trkpt lat="45.601122764617045" lon="10.110698662510249"><ele>177.0</ele><time>2026-04-02T16:26:59.004Z</time></trkpt><trkpt lat="45.601179451741125" lon="10.110758806900549"><ele>177.0</ele><time>2026-04-02T16:27:02.004Z</time></trkpt><trkpt lat="45.60123724067854" lon="10.110827391246612"><ele>177.0</ele><time>2026-04-02T16:27:05.004Z</time></trkpt><trkpt lat="45.6012893898403" lon="10.110901361243467"><ele>177.0</ele><time>2026-04-02T16:27:08.004Z</time></trkpt><trkpt lat="45.601345319782055" lon="10.110970194253255"><ele>177.0</ele><time>2026-04-02T16:27:11.004Z</time></trkpt><trkpt lat="45.60138265794227" lon="10.11105459175163"><ele>177.0</ele><time>2026-04-02T16:27:14.004Z</time></trkpt><trkpt lat="45.60141205492493" lon="10.111144810209053"><ele>177.85714285714286</ele><time>2026-04-02T16:27:17.004Z</time></trkpt><trkpt lat="45.60145724865975" lon="10.111209068655558"><ele>178.7142857142857</ele><time>2026-04-02T16:27:20.004Z</time></trkpt><trkpt lat="45.60150438952383" lon="10.111285989365241"><ele>179.57142857142856</ele><time>2026-04-02T16:27:23.004Z</time></trkpt><trkpt lat="45.601566522941305" lon="10.111326283942672"><ele>180.42857142857144</ele><time>2026-04-02T16:27:26.004Z</time></trkpt><trkpt lat="45.60164007982599" lon="10.111348354585923"><ele>181.28571428571428</ele><time>2026-04-02T16:27:29.004Z</time></trkpt><trkpt lat="45.60171442972571" lon="10.111357949322697"><ele>182.14285714285714</ele><time>2026-04-02T16:27:32.004Z</time></trkpt><trkpt lat="45.601790620017255" lon="10.111391681446522"><ele>183.0</ele><time>2026-04-02T16:27:35.004Z</time></trkpt><trkpt lat="45.601865527042094" lon="10.111402434528097"><ele>183.0</ele><time>2026-04-02T16:27:38.004Z</time></trkpt><trkpt lat="45.60193118389112" lon="10.111470762826363"><ele>183.0</ele><time>2026-04-02T16:27:41.004Z</time></trkpt><trkpt lat="45.60199163355507" lon="10.111547571698553"><ele>183.0</ele><time>2026-04-02T16:27:44.004Z</time></trkpt><trkpt lat="45.60206185960207" lon="10.111615456574723"><ele>183.0</ele><time>2026-04-02T16:27:47.004Z</time></trkpt><trkpt lat="45.60212864753468" lon="10.11168868023798"><ele>183.0</ele><time>2026-04-02T16:27:50.004Z</time></trkpt><trkpt lat="45.602192166781734" lon="10.111755850552244"><ele>183.0</ele><time>2026-04-02T16:27:53.004Z</time></trkpt><trkpt lat="45.60224566335114" lon="10.11183580343021"><ele>183.14285714285714</ele><time>2026-04-02T16:27:56.004Z</time></trkpt><trkpt lat="45.60229543945473" lon="10.111908030873192"><ele>183.28571428571428</ele><time>2026-04-02T16:27:59.004Z</time></trkpt><trkpt lat="45.602344133039175" lon="10.111980333756263"><ele>183.42857142857144</ele><time>2026-04-02T16:28:02.004Z</time></trkpt><trkpt lat="45.6023935963389" lon="10.11206250054158"><ele>183.57142857142856</ele><time>2026-04-02T16:28:05.004Z</time></trkpt><trkpt lat="45.60243660312703" lon="10.112142356384023"><ele>183.7142857142857</ele><time>2026-04-02T16:28:08.004Z</time></trkpt><trkpt lat="45.60248145937511" lon="10.112229183988914"><ele>183.85714285714286</ele><time>2026-04-02T16:28:11.004Z</time></trkpt><trkpt lat="45.60251660324517" lon="10.112321255505892"><ele>184.0</ele><time>2026-04-02T16:28:14.004Z</time></trkpt><trkpt lat="45.602550712754315" lon="10.112413131218402"><ele>183.14285714285714</ele><time>2026-04-02T16:28:17.004Z</time></trkpt><trkpt lat="45.60258512142779" lon="10.112504953562555"><ele>182.28571428571428</ele><time>2026-04-02T16:28:20.005Z</time></trkpt><trkpt lat="45.6026420580878" lon="10.11256806890524"><ele>181.42857142857142</ele><time>2026-04-02T16:28:23.005Z</time></trkpt><trkpt lat="45.602701295997804" lon="10.112635118339563"><ele>180.57142857142856</ele><time>2026-04-02T16:28:26.005Z</time></trkpt><trkpt lat="45.6027588167036" lon="10.112699563240117"><ele>179.71428571428572</ele><time>2026-04-02T16:28:29.005Z</time></trkpt><trkpt lat="45.60281675929481" lon="10.112754592581597"><ele>178.85714285714283</ele><time>2026-04-02T16:28:32.005Z</time></trkpt><trkpt lat="45.60287932937227" lon="10.112824133259716"><ele>178.0</ele><time>2026-04-02T16:28:35.005Z</time></trkpt><trkpt lat="45.60294110642259" lon="10.11287442526618"><ele>177.99999999999997</ele><time>2026-04-02T16:28:38.005Z</time></trkpt><trkpt lat="45.602994141270614" lon="10.11293401534428"><ele>178.0</ele><time>2026-04-02T16:28:41.005Z</time></trkpt><trkpt lat="45.60305388744213" lon="10.112996654780988"><ele>178.0</ele><time>2026-04-02T16:28:44.005Z</time></trkpt><trkpt lat="45.603118283815675" lon="10.113057044308349"><ele>178.0</ele><time>2026-04-02T16:28:47.005Z</time></trkpt><trkpt lat="45.60317407712688" lon="10.113117482928889"><ele>178.0</ele><time>2026-04-02T16:28:50.005Z</time></trkpt><trkpt lat="45.603231795811354" lon="10.113178856684828"><ele>177.99999999999997</ele><time>2026-04-02T16:28:53.005Z</time></trkpt><trkpt lat="45.6032924801974" lon="10.113245206954934"><ele>178.0</ele><time>2026-04-02T16:28:56.005Z</time></trkpt><trkpt lat="45.603354975639" lon="10.113306902647391"><ele>178.28571428571428</ele><time>2026-04-02T16:28:59.005Z</time></trkpt><trkpt lat="45.603414794704115" lon="10.1133684741474"><ele>178.57142857142856</ele><time>2026-04-02T16:29:02.005Z</time></trkpt><trkpt lat="45.6034727848408" lon="10.11343298521304"><ele>178.85714285714283</ele><time>2026-04-02T16:29:05.005Z</time></trkpt><trkpt lat="45.603531370078" lon="10.113491942280064"><ele>179.14285714285714</ele><time>2026-04-02T16:29:08.005Z</time></trkpt><trkpt lat="45.60359103168754" lon="10.113547560952233"><ele>179.42857142857144</ele><time>2026-04-02T16:29:11.005Z</time></trkpt><trkpt lat="45.60365101143166" lon="10.113612738537563"><ele>179.7142857142857</ele><time>2026-04-02T16:29:14.005Z</time></trkpt><trkpt lat="45.603710428762305" lon="10.113673840202395"><ele>180.0</ele><time>2026-04-02T16:29:17.005Z</time></trkpt><trkpt lat="45.60377076433823" lon="10.113743252147174"><ele>180.28571428571428</ele><time>2026-04-02T16:29:20.005Z</time></trkpt><trkpt lat="45.60383250926541" lon="10.113795929503466"><ele>180.57142857142858</ele><time>2026-04-02T16:29:23.005Z</time></trkpt><trkpt lat="45.603888420454616" lon="10.113860244796593"><ele>180.85714285714286</ele><time>2026-04-02T16:29:26.005Z</time></trkpt><trkpt lat="45.603943960264274" lon="10.113908791464409"><ele>181.14285714285714</ele><time>2026-04-02T16:29:29.005Z</time></trkpt><trkpt lat="45.60400073528404" lon="10.113967629384486"><ele>181.42857142857144</ele><time>2026-04-02T16:29:32.005Z</time></trkpt><trkpt lat="45.60406203695056" lon="10.114027350431158"><ele>181.71428571428572</ele><time>2026-04-02T16:29:35.005Z</time></trkpt><trkpt lat="45.60411981300673" lon="10.114079529109441"><ele>182.0</ele><time>2026-04-02T16:29:38.004Z</time></trkpt><trkpt lat="45.6041771474885" lon="10.114142394884643"><ele>182.5</ele><time>2026-04-02T16:29:41.004Z</time></trkpt><trkpt lat="45.604229791781464" lon="10.1142070799439"><ele>183.0</ele><time>2026-04-02T16:29:44.004Z</time></trkpt><trkpt lat="45.604300242914526" lon="10.114237628845213"><ele>183.5</ele><time>2026-04-02T16:29:47.004Z</time></trkpt><trkpt lat="45.60437851038125" lon="10.114220247025994"><ele>184.0</ele><time>2026-04-02T16:29:50.004Z</time></trkpt><trkpt lat="45.60445077312933" lon="10.11424397263541"><ele>184.5</ele><time>2026-04-02T16:29:53.004Z</time></trkpt><trkpt lat="45.60446001938345" lon="10.114356203956158"><ele>185.0</ele><time>2026-04-02T16:29:56.004Z</time></trkpt><trkpt lat="45.60448528479497" lon="10.114464663000488"><ele>184.85714285714283</ele><time>2026-04-02T16:30:00.004Z</time></trkpt><trkpt lat="45.6045273915815" lon="10.114537164551166"><ele>184.71428571428572</ele><time>2026-04-02T16:30:03.004Z</time></trkpt><trkpt lat="45.60457434035649" lon="10.114610277978006"><ele>184.57142857142856</ele><time>2026-04-02T16:30:06.004Z</time></trkpt><trkpt lat="45.60464102199099" lon="10.114654047275941"><ele>184.42857142857142</ele><time>2026-04-02T16:30:09.004Z</time></trkpt><trkpt lat="45.6046998667158" lon="10.11470311046719"><ele>184.28571428571428</ele><time>2026-04-02T16:30:12.004Z</time></trkpt><trkpt lat="45.60475811856294" lon="10.114770232986167"><ele>184.14285714285714</ele><time>2026-04-02T16:30:15.004Z</time></trkpt><trkpt lat="45.604815731058935" lon="10.114834794451305"><ele>184.0</ele><time>2026-04-02T16:30:18.004Z</time></trkpt><trkpt lat="45.6048778979581" lon="10.114910538201705"><ele>185.14285714285714</ele><time>2026-04-02T16:30:22.004Z</time></trkpt><trkpt lat="45.60493460906314" lon="10.114965072592637"><ele>186.28571428571428</ele><time>2026-04-02T16:30:25.004Z</time></trkpt><trkpt lat="45.60498902837682" lon="10.115029776528525"><ele>187.42857142857142</ele><time>2026-04-02T16:30:28.004Z</time></trkpt><trkpt lat="45.60503577886102" lon="10.115095929393675"><ele>188.57142857142856</ele><time>2026-04-02T16:30:31.004Z</time></trkpt><trkpt lat="45.605081519006546" lon="10.115171962736055"><ele>189.71428571428572</ele><time>2026-04-02T16:30:34.004Z</time></trkpt><trkpt lat="45.605126398496466" lon="10.115244914635218"><ele>190.85714285714283</ele><time>2026-04-02T16:30:36.999Z</time></trkpt><trkpt lat="45.60516144253697" lon="10.115334569545707"><ele>192.0</ele><time>2026-04-02T16:30:39.999Z</time></trkpt><trkpt lat="45.605192589027226" lon="10.115418865846367"><ele>191.99999999999997</ele><time>2026-04-02T16:30:42.999Z</time></trkpt><trkpt lat="45.60522555915281" lon="10.115502679251883"><ele>192.0</ele><time>2026-04-02T16:30:45.999Z</time></trkpt><trkpt lat="45.605261942269536" lon="10.11559074543525"><ele>192.0</ele><time>2026-04-02T16:30:48.999Z</time></trkpt><trkpt lat="45.60528785000915" lon="10.115687704781754"><ele>192.0</ele><time>2026-04-02T16:30:51.999Z</time></trkpt><trkpt lat="45.60533362252772" lon="10.115772929516481"><ele>192.0</ele><time>2026-04-02T16:30:54.999Z</time></trkpt><trkpt lat="45.60537229296316" lon="10.115860917614475"><ele>191.99999999999997</ele><time>2026-04-02T16:30:57.999Z</time></trkpt><trkpt lat="45.60540895370284" lon="10.115944033875524"><ele>192.0</ele><time>2026-04-02T16:31:00.999Z</time></trkpt><trkpt lat="45.605449419495315" lon="10.116022243203117"><ele>192.14285714285714</ele><time>2026-04-02T16:31:03.999Z</time></trkpt><trkpt lat="45.6054839042619" lon="10.116115310505123"><ele>192.28571428571428</ele><time>2026-04-02T16:31:06.999Z</time></trkpt><trkpt lat="45.605511509029235" lon="10.116203954444787"><ele>192.42857142857144</ele><time>2026-04-02T16:31:09.999Z</time></trkpt><trkpt lat="45.60555637197209" lon="10.11629368379041"><ele>192.57142857142856</ele><time>2026-04-02T16:31:12.999Z</time></trkpt><trkpt lat="45.60560763134391" lon="10.116374945411442"><ele>192.71428571428572</ele><time>2026-04-02T16:31:15.999Z</time></trkpt><trkpt lat="45.60565767019434" lon="10.116455621037897"><ele>192.85714285714286</ele><time>2026-04-02T16:31:18.999Z</time></trkpt><trkpt lat="45.60569473523994" lon="10.116547407959686"><ele>193.0</ele><time>2026-04-02T16:31:21.998Z</time></trkpt><trkpt lat="45.60568358357715" lon="10.116651630155388"><ele>193.00000000000003</ele><time>2026-04-02T16:31:24.998Z</time></trkpt><trkpt lat="45.60562473354819" lon="10.116707342929708"><ele>193.0</ele><time>2026-04-02T16:31:27.998Z</time></trkpt><trkpt lat="45.60558999714833" lon="10.11678779104546"><ele>193.0</ele><time>2026-04-02T16:31:30.999Z</time></trkpt><trkpt lat="45.605591905635904" lon="10.116903108749943"><ele>193.0</ele><time>2026-04-02T16:31:33.998Z</time></trkpt><trkpt lat="45.60562365716496" lon="10.117000655326862"><ele>193.0</ele><time>2026-04-02T16:31:36.999Z</time></trkpt><trkpt lat="45.605638958972094" lon="10.117099455798"><ele>193.00000000000003</ele><time>2026-04-02T16:31:39.999Z</time></trkpt><trkpt lat="45.605626327049585" lon="10.117210822446365"><ele>193.0</ele><time>2026-04-02T16:31:42.999Z</time></trkpt><trkpt lat="45.60567603373701" lon="10.117302705681812"><ele>192.99999999999997</ele><time>2026-04-02T16:31:45.999Z</time></trkpt><trkpt lat="45.605763014252815" lon="10.117337374451623"><ele>193.0</ele><time>2026-04-02T16:31:48.999Z</time></trkpt><trkpt lat="45.605820985020884" lon="10.11742029433"><ele>193.0</ele><time>2026-04-02T16:31:51.999Z</time></trkpt><trkpt lat="45.605872493393065" lon="10.1175087586773"><ele>193.0</ele><time>2026-04-02T16:31:54.999Z</time></trkpt><trkpt lat="45.60591320611058" lon="10.117601715094949"><ele>192.99999999999997</ele><time>2026-04-02T16:31:57.999Z</time></trkpt><trkpt lat="45.605961488542334" lon="10.11769724366726"><ele>193.0</ele><time>2026-04-02T16:32:00.999Z</time></trkpt><trkpt lat="45.606003464926694" lon="10.11778643324885"><ele>192.99999999999997</ele><time>2026-04-02T16:32:03.999Z</time></trkpt><trkpt lat="45.60605496788783" lon="10.11786160427772"><ele>193.0</ele><time>2026-04-02T16:32:06.999Z</time></trkpt><trkpt lat="45.60610718143311" lon="10.11794198898181"><ele>193.0</ele><time>2026-04-02T16:32:09.999Z</time></trkpt><trkpt lat="45.60615864835664" lon="10.118026181987817"><ele>193.0</ele><time>2026-04-02T16:32:12.999Z</time></trkpt><trkpt lat="45.606216471018406" lon="10.118082999854748"><ele>192.99999999999997</ele><time>2026-04-02T16:32:15.999Z</time></trkpt><trkpt lat="45.606269778423275" lon="10.118160375618816"><ele>193.0</ele><time>2026-04-02T16:32:18.999Z</time></trkpt><trkpt lat="45.60632464467292" lon="10.118238981222955"><ele>193.00000000000003</ele><time>2026-04-02T16:32:21.999Z</time></trkpt><trkpt lat="45.60636822749697" lon="10.118327243786295"><ele>193.0</ele><time>2026-04-02T16:32:24.999Z</time></trkpt><trkpt lat="45.606402088239676" lon="10.118419121058022"><ele>193.0</ele><time>2026-04-02T16:32:27.999Z</time></trkpt><trkpt lat="45.606442455671306" lon="10.118503643162768"><ele>193.0</ele><time>2026-04-02T16:32:30.999Z</time></trkpt><trkpt lat="45.60651481301001" lon="10.118530260517481"><ele>193.0</ele><time>2026-04-02T16:32:33.999Z</time></trkpt><trkpt lat="45.606592047038205" lon="10.118565650306522"><ele>193.00000000000003</ele><time>2026-04-02T16:32:36.999Z</time></trkpt><trkpt lat="45.60665786333522" lon="10.118612595748075"><ele>193.0</ele><time>2026-04-02T16:32:39.999Z</time></trkpt><trkpt lat="45.606720720894046" lon="10.118672871422321"><ele>193.00000000000003</ele><time>2026-04-02T16:32:42.999Z</time></trkpt><trkpt lat="45.606775008714365" lon="10.118743981725272"><ele>193.0</ele><time>2026-04-02T16:32:45.999Z</time></trkpt><trkpt lat="45.606827821947434" lon="10.118810442644419"><ele>193.0</ele><time>2026-04-02T16:32:48.999Z</time></trkpt><trkpt lat="45.60688259586052" lon="10.118874760197171"><ele>193.0</ele><time>2026-04-02T16:32:51.999Z</time></trkpt><trkpt lat="45.606931443087944" lon="10.118938256835795"><ele>193.0</ele><time>2026-04-02T16:32:54.999Z</time></trkpt><trkpt lat="45.60699486200781" lon="10.119015190302845"><ele>193.00000000000003</ele><time>2026-04-02T16:32:58.999Z</time></trkpt><trkpt lat="45.60705773845054" lon="10.119064568037805"><ele>193.0</ele><time>2026-04-02T16:33:01.999Z</time></trkpt><trkpt lat="45.60711536791431" lon="10.119102237060247"><ele>193.00000000000003</ele><time>2026-04-02T16:33:04.999Z</time></trkpt><trkpt lat="45.60717977255364" lon="10.119127886137738"><ele>193.0</ele><time>2026-04-02T16:33:07.999Z</time></trkpt><trkpt lat="45.60724669708893" lon="10.119138856566106"><ele>193.0</ele><time>2026-04-02T16:33:10.999Z</time></trkpt><trkpt lat="45.60731286569731" lon="10.119159009901521"><ele>193.0</ele><time>2026-04-02T16:33:13.999Z</time></trkpt><trkpt lat="45.60738166478228" lon="10.11917165096598"><ele>193.0</ele><time>2026-04-02T16:33:16.999Z</time></trkpt><trkpt lat="45.60744605838975" lon="10.119200920621262"><ele>193.00000000000003</ele><time>2026-04-02T16:33:19.999Z</time></trkpt><trkpt lat="45.60751004273523" lon="10.119219995416152"><ele>193.0</ele><time>2026-04-02T16:33:22.999Z</time></trkpt><trkpt lat="45.607579455067" lon="10.11925671213618"><ele>193.00000000000003</ele><time>2026-04-02T16:33:25.999Z</time></trkpt><trkpt lat="45.6076455744277" lon="10.119294167483593"><ele>193.0</ele><time>2026-04-02T16:33:28.999Z</time></trkpt><trkpt lat="45.60771385634237" lon="10.119332381640296"><ele>193.0</ele><time>2026-04-02T16:33:31.998Z</time></trkpt><trkpt lat="45.607783165181715" lon="10.119357138294028"><ele>193.0</ele><time>2026-04-02T16:33:34.999Z</time></trkpt><trkpt lat="45.60785350850116" lon="10.119385877244765"><ele>193.0</ele><time>2026-04-02T16:33:37.999Z</time></trkpt><trkpt lat="45.60791434419673" lon="10.119421287528793"><ele>193.00000000000003</ele><time>2026-04-02T16:33:40.999Z</time></trkpt><trkpt lat="45.607978561360326" lon="10.119470966366823"><ele>193.0</ele><time>2026-04-02T16:33:43.999Z</time></trkpt><trkpt lat="45.60803900726745" lon="10.119520162037986"><ele>192.71428571428572</ele><time>2026-04-02T16:33:46.999Z</time></trkpt><trkpt lat="45.60810173197331" lon="10.119569525821369"><ele>192.42857142857144</ele><time>2026-04-02T16:33:49.999Z</time></trkpt><trkpt lat="45.60816885013083" lon="10.119620005388809"><ele>192.14285714285717</ele><time>2026-04-02T16:33:52.999Z</time></trkpt><trkpt lat="45.60824373179603" lon="10.11966395977961"><ele>191.85714285714286</ele><time>2026-04-02T16:33:55.999Z</time></trkpt><trkpt lat="45.608312489830425" lon="10.119691943062726"><ele>191.57142857142856</ele><time>2026-04-02T16:33:58.999Z</time></trkpt><trkpt lat="45.608382312099245" lon="10.119683083915739"><ele>191.2857142857143</ele><time>2026-04-02T16:34:01.999Z</time></trkpt><trkpt lat="45.6084101949527" lon="10.11957962509041"><ele>191.0</ele><time>2026-04-02T16:34:04.999Z</time></trkpt><trkpt lat="45.60841117822719" lon="10.119483376274767"><ele>191.0</ele><time>2026-04-02T16:34:07.999Z</time></trkpt><trkpt lat="45.608354077429844" lon="10.11939744475647"><ele>191.0</ele><time>2026-04-02T16:34:11.999Z</time></trkpt><trkpt lat="45.60830763337579" lon="10.11931874171781"><ele>191.0</ele><time>2026-04-02T16:34:14.999Z</time></trkpt><trkpt lat="45.60828307996956" lon="10.119222335913832"><ele>191.0</ele><time>2026-04-02T16:34:17.999Z</time></trkpt><trkpt lat="45.60826339140514" lon="10.1191210529063"><ele>191.0</ele><time>2026-04-02T16:34:20.999Z</time></trkpt><trkpt lat="45.608301956142675" lon="10.119011059472262"><ele>191.0</ele><time>2026-04-02T16:34:23.999Z</time></trkpt><trkpt lat="45.60837332478493" lon="10.1189797517876"><ele>191.42857142857144</ele><time>2026-04-02T16:34:26.999Z</time></trkpt><trkpt lat="45.60842242019112" lon="10.118899592056392"><ele>191.85714285714283</ele><time>2026-04-02T16:34:29.999Z</time></trkpt><trkpt lat="45.60846042093569" lon="10.118803690467502"><ele>192.28571428571428</ele><time>2026-04-02T16:34:32.999Z</time></trkpt><trkpt lat="45.608476688392656" lon="10.118698917280739"><ele>192.71428571428572</ele><time>2026-04-02T16:34:35.999Z</time></trkpt><trkpt lat="45.60849057966307" lon="10.118601110368177"><ele>193.14285714285717</ele><time>2026-04-02T16:34:38.999Z</time></trkpt><trkpt lat="45.608502500064326" lon="10.118505844488304"><ele>193.57142857142856</ele><time>2026-04-02T16:34:41.999Z</time></trkpt><trkpt lat="45.60851041838533" lon="10.11840955966687"><ele>194.0</ele><time>2026-04-02T16:34:44.999Z</time></trkpt><trkpt lat="45.608519369042" lon="10.118306003729318"><ele>194.42857142857142</ele><time>2026-04-02T16:34:47.999Z</time></trkpt><trkpt lat="45.60853352707484" lon="10.11821523555405"><ele>194.85714285714286</ele><time>2026-04-02T16:34:50.999Z</time></trkpt><trkpt lat="45.60854011639397" lon="10.11810261487092"><ele>195.28571428571428</ele><time>2026-04-02T16:34:53.999Z</time></trkpt><trkpt lat="45.60855191209669" lon="10.118000857839025"><ele>195.71428571428572</ele><time>2026-04-02T16:34:56.999Z</time></trkpt><trkpt lat="45.60856763594173" lon="10.117899323540888"><ele>196.14285714285717</ele><time>2026-04-02T16:34:59.999Z</time></trkpt><trkpt lat="45.6085819945122" lon="10.117800532903031"><ele>196.57142857142858</ele><time>2026-04-02T16:35:02.999Z</time></trkpt><trkpt lat="45.60858449255448" lon="10.117679352126663"><ele>197.0</ele><time>2026-04-02T16:35:06.999Z</time></trkpt><trkpt lat="45.60858161434567" lon="10.117564620841733"><ele>197.00000000000003</ele><time>2026-04-02T16:35:10.999Z</time></trkpt><trkpt lat="45.60854834310573" lon="10.1174598117962"><ele>197.0</ele><time>2026-04-02T16:35:13.999Z</time></trkpt><trkpt lat="45.60850925394832" lon="10.117358493101925"><ele>197.0</ele><time>2026-04-02T16:35:17.999Z</time></trkpt><trkpt lat="45.608441667449746" lon="10.117326920043"><ele>197.0</ele><time>2026-04-02T16:35:20.999Z</time></trkpt><trkpt lat="45.60836828068823" lon="10.117294381845067"><ele>197.00000000000003</ele><time>2026-04-02T16:35:23.999Z</time></trkpt><trkpt lat="45.60830364527404" lon="10.1172436399314"><ele>197.0</ele><time>2026-04-02T16:35:26.999Z</time></trkpt><trkpt lat="45.608251764193255" lon="10.11717865137029"><ele>197.0</ele><time>2026-04-02T16:35:29.999Z</time></trkpt><trkpt lat="45.6081897700971" lon="10.117137098301292"><ele>197.0</ele><time>2026-04-02T16:35:32.999Z</time></trkpt><trkpt lat="45.60813490198641" lon="10.117087870317471"><ele>197.0</ele><time>2026-04-02T16:35:35.999Z</time></trkpt><trkpt lat="45.60808390653002" lon="10.116999478445056"><ele>197.0</ele><time>2026-04-02T16:35:38.999Z</time></trkpt><trkpt lat="45.60804009055346" lon="10.116903810987626"><ele>197.0</ele><time>2026-04-02T16:35:41.999Z</time></trkpt><trkpt lat="45.60797591532261" lon="10.116860031811093"><ele>197.0</ele><time>2026-04-02T16:35:44.999Z</time></trkpt><trkpt lat="45.60791691096768" lon="10.116804163067597"><ele>197.0</ele><time>2026-04-02T16:35:47.999Z</time></trkpt><trkpt lat="45.60785259850975" lon="10.116751146466592"><ele>196.28571428571428</ele><time>2026-04-02T16:35:50.999Z</time></trkpt><trkpt lat="45.607784998139245" lon="10.116710785536403"><ele>195.57142857142858</ele><time>2026-04-02T16:35:53.999Z</time></trkpt><trkpt lat="45.6077145571219" lon="10.116680845661914"><ele>194.85714285714283</ele><time>2026-04-02T16:35:56.999Z</time></trkpt><trkpt lat="45.60764879223915" lon="10.116644970371906"><ele>194.14285714285714</ele><time>2026-04-02T16:35:59.999Z</time></trkpt><trkpt lat="45.607598129119644" lon="10.116577985309139"><ele>193.42857142857142</ele><time>2026-04-02T16:36:02.999Z</time></trkpt><trkpt lat="45.607622606763165" lon="10.116480897067792"><ele>192.7142857142857</ele><time>2026-04-02T16:36:04.999Z</time></trkpt><trkpt lat="45.607694267931706" lon="10.116458786637004"><ele>192.0</ele><time>2026-04-02T16:36:07.999Z</time></trkpt><trkpt lat="45.60775756962547" lon="10.116445779544446"><ele>191.7142857142857</ele><time>2026-04-02T16:36:10.999Z</time></trkpt><trkpt lat="45.607819775401154" lon="10.11641755228742"><ele>191.42857142857142</ele><time>2026-04-02T16:36:13.999Z</time></trkpt><trkpt lat="45.607892252690206" lon="10.116387789797994"><ele>191.14285714285714</ele><time>2026-04-02T16:36:16.999Z</time></trkpt><trkpt lat="45.60795923419686" lon="10.11637577512473"><ele>190.85714285714283</ele><time>2026-04-02T16:36:19.999Z</time></trkpt><trkpt lat="45.60802654127812" lon="10.11632833899449"><ele>190.57142857142858</ele><time>2026-04-02T16:36:22.999Z</time></trkpt><trkpt lat="45.60808693603059" lon="10.116252978803052"><ele>190.28571428571428</ele><time>2026-04-02T16:36:25.999Z</time></trkpt><trkpt lat="45.60814673404788" lon="10.11621387818059"><ele>190.0</ele><time>2026-04-02T16:36:28.999Z</time></trkpt><trkpt lat="45.608200883255265" lon="10.11615318943034"><ele>191.0</ele><time>2026-04-02T16:36:31.999Z</time></trkpt><trkpt lat="45.60825627398767" lon="10.116093736298549"><ele>192.0</ele><time>2026-04-02T16:36:34.999Z</time></trkpt><trkpt lat="45.60832755610302" lon="10.11605322751669"><ele>193.0</ele><time>2026-04-02T16:36:37.999Z</time></trkpt><trkpt lat="45.6083881451966" lon="10.115996785205054"><ele>194.0</ele><time>2026-04-02T16:36:40.999Z</time></trkpt><trkpt lat="45.608455520242096" lon="10.115949146349688"><ele>195.0</ele><time>2026-04-02T16:36:43.999Z</time></trkpt><trkpt lat="45.60852154080501" lon="10.11591218128872"><ele>196.0</ele><time>2026-04-02T16:36:46.999Z</time></trkpt><trkpt lat="45.60854133234176" lon="10.1158152987215"><ele>197.0</ele><time>2026-04-02T16:36:49.999Z</time></trkpt><trkpt lat="45.608524832640626" lon="10.115725604990482"><ele>197.0</ele><time>2026-04-02T16:36:52.999Z</time></trkpt><trkpt lat="45.60850084669935" lon="10.115634013550986"><ele>197.0</ele><time>2026-04-02T16:36:55.999Z</time></trkpt><trkpt lat="45.608477730698134" lon="10.115548196015403"><ele>197.0</ele><time>2026-04-02T16:36:58.999Z</time></trkpt><trkpt lat="45.608463041850385" lon="10.115446967343308"><ele>197.0</ele><time>2026-04-02T16:37:01.999Z</time></trkpt><trkpt lat="45.60844084967183" lon="10.11535925711992"><ele>197.0</ele><time>2026-04-02T16:37:04.999Z</time></trkpt><trkpt lat="45.60842191304367" lon="10.115258568629985"><ele>197.0</ele><time>2026-04-02T16:37:07.999Z</time></trkpt><trkpt lat="45.60839432570419" lon="10.11516072709272"><ele>197.0</ele><time>2026-04-02T16:37:10.999Z</time></trkpt><trkpt lat="45.60838336725448" lon="10.11506083096836"><ele>197.0</ele><time>2026-04-02T16:37:13.999Z</time></trkpt><trkpt lat="45.608363483616394" lon="10.11497073524398"><ele>197.0</ele><time>2026-04-02T16:37:16.999Z</time></trkpt><trkpt lat="45.60834421891086" lon="10.114876682036204"><ele>197.0</ele><time>2026-04-02T16:37:19.999Z</time></trkpt><trkpt lat="45.60831241346061" lon="10.114786041777455"><ele>197.0</ele><time>2026-04-02T16:37:22.999Z</time></trkpt><trkpt lat="45.608272419240656" lon="10.114702536299575"><ele>197.0</ele><time>2026-04-02T16:37:25.999Z</time></trkpt><trkpt lat="45.608223005412405" lon="10.114628956272359"><ele>197.0</ele><time>2026-04-02T16:37:28.999Z</time></trkpt><trkpt lat="45.608181397660516" lon="10.114550611758041"><ele>197.0</ele><time>2026-04-02T16:37:31.999Z</time></trkpt><trkpt lat="45.608137326238634" lon="10.114461608715358"><ele>197.0</ele><time>2026-04-02T16:37:34.999Z</time></trkpt><trkpt lat="45.60809753944636" lon="10.114378098850244"><ele>197.0</ele><time>2026-04-02T16:37:37.999Z</time></trkpt><trkpt lat="45.60803924694863" lon="10.114322796619952"><ele>197.0</ele><time>2026-04-02T16:37:40.999Z</time></trkpt><trkpt lat="45.60798712004731" lon="10.11425554524915"><ele>197.0</ele><time>2026-04-02T16:37:43.999Z</time></trkpt><trkpt lat="45.60793243728799" lon="10.114190313417195"><ele>197.0</ele><time>2026-04-02T16:37:46.999Z</time></trkpt><trkpt lat="45.607880245252964" lon="10.114121207751358"><ele>197.0</ele><time>2026-04-02T16:37:49.999Z</time></trkpt><trkpt lat="45.6078243794938" lon="10.114050645386387"><ele>197.0</ele><time>2026-04-02T16:37:52.999Z</time></trkpt><trkpt lat="45.60778125285502" lon="10.11397613538063"><ele>197.0</ele><time>2026-04-02T16:37:55.999Z</time></trkpt><trkpt lat="45.60773649392307" lon="10.113897210638727"><ele>197.0</ele><time>2026-04-02T16:37:58.999Z</time></trkpt><trkpt lat="45.60768717740732" lon="10.113826433055745"><ele>197.0</ele><time>2026-04-02T16:38:01.999Z</time></trkpt><trkpt lat="45.60764643678345" lon="10.113745717825966"><ele>197.0</ele><time>2026-04-02T16:38:04.999Z</time></trkpt><trkpt lat="45.60759073736236" lon="10.113648137668314"><ele>197.0</ele><time>2026-04-02T16:38:08.999Z</time></trkpt><trkpt lat="45.607546452225115" lon="10.113568114859808"><ele>197.0</ele><time>2026-04-02T16:38:11.999Z</time></trkpt><trkpt lat="45.607514206616486" lon="10.113476609361388"><ele>197.0</ele><time>2026-04-02T16:38:14.999Z</time></trkpt><trkpt lat="45.60747162099229" lon="10.113391880980673"><ele>197.0</ele><time>2026-04-02T16:38:17.999Z</time></trkpt><trkpt lat="45.607436257893916" lon="10.113300499520989"><ele>197.0</ele><time>2026-04-02T16:38:20.999Z</time></trkpt><trkpt lat="45.60740919797788" lon="10.113201590007666"><ele>197.0</ele><time>2026-04-02T16:38:23.999Z</time></trkpt><trkpt lat="45.60738342601668" lon="10.113107769142779"><ele>197.0</ele><time>2026-04-02T16:38:26.999Z</time></trkpt><trkpt lat="45.60734903896536" lon="10.113013607051494"><ele>197.0</ele><time>2026-04-02T16:38:29.999Z</time></trkpt><trkpt lat="45.607315340044444" lon="10.112911112769284"><ele>197.0</ele><time>2026-04-02T16:38:32.999Z</time></trkpt><trkpt lat="45.607278958708655" lon="10.11281620670627"><ele>197.0</ele><time>2026-04-02T16:38:35.999Z</time></trkpt><trkpt lat="45.60725821489401" lon="10.112709759963021"><ele>198.28571428571428</ele><time>2026-04-02T16:38:38.999Z</time></trkpt><trkpt lat="45.607237414538936" lon="10.1126134173438"><ele>199.57142857142858</ele><time>2026-04-02T16:38:41.999Z</time></trkpt><trkpt lat="45.60721544510643" lon="10.11251853894653"><ele>200.85714285714283</ele><time>2026-04-02T16:38:44.999Z</time></trkpt><trkpt lat="45.607212658555746" lon="10.112409181924534"><ele>202.14285714285714</ele><time>2026-04-02T16:38:47.999Z</time></trkpt><trkpt lat="45.607211706348245" lon="10.11230682043466"><ele>203.42857142857142</ele><time>2026-04-02T16:38:50.999Z</time></trkpt><trkpt lat="45.607207800959756" lon="10.112211147600396"><ele>204.7142857142857</ele><time>2026-04-02T16:38:53.999Z</time></trkpt><trkpt lat="45.607214294363665" lon="10.11210364704392"><ele>206.0</ele><time>2026-04-02T16:38:56.999Z</time></trkpt><trkpt lat="45.6072029822794" lon="10.112008217951521"><ele>206.14285714285714</ele><time>2026-04-02T16:38:59.999Z</time></trkpt><trkpt lat="45.6071910618533" lon="10.111899057566138"><ele>206.28571428571428</ele><time>2026-04-02T16:39:02.999Z</time></trkpt><trkpt lat="45.607185651771765" lon="10.11180439289343"><ele>206.42857142857144</ele><time>2026-04-02T16:39:05.999Z</time></trkpt><trkpt lat="45.607173850907735" lon="10.111707494599402"><ele>206.57142857142856</ele><time>2026-04-02T16:39:08.999Z</time></trkpt><trkpt lat="45.6071576155173" lon="10.111610623550035"><ele>206.71428571428572</ele><time>2026-04-02T16:39:11.999Z</time></trkpt><trkpt lat="45.60712527027705" lon="10.111520734655368"><ele>206.85714285714286</ele><time>2026-04-02T16:39:14.999Z</time></trkpt><trkpt lat="45.60709521785821" lon="10.111433608128628"><ele>207.0</ele><time>2026-04-02T16:39:17.999Z</time></trkpt><trkpt lat="45.607062526455934" lon="10.111343840476653"><ele>206.14285714285717</ele><time>2026-04-02T16:39:20.999Z</time></trkpt><trkpt lat="45.60705465678623" lon="10.11123639531836"><ele>205.28571428571428</ele><time>2026-04-02T16:39:23.999Z</time></trkpt><trkpt lat="45.6070351884698" lon="10.11114003043905"><ele>204.42857142857144</ele><time>2026-04-02T16:39:26.999Z</time></trkpt><trkpt lat="45.60701268139278" lon="10.111043984821906"><ele>203.57142857142858</ele><time>2026-04-02T16:39:29.999Z</time></trkpt><trkpt lat="45.60698939768981" lon="10.110947372238767"><ele>202.71428571428572</ele><time>2026-04-02T16:39:32.999Z</time></trkpt><trkpt lat="45.60695412997304" lon="10.110854589503898"><ele>201.85714285714286</ele><time>2026-04-02T16:39:35.999Z</time></trkpt><trkpt lat="45.6069140813654" lon="10.110774031417675"><ele>201.0</ele><time>2026-04-02T16:39:38.999Z</time></trkpt><trkpt lat="45.60686000439108" lon="10.11071626160846"><ele>200.0</ele><time>2026-04-02T16:39:41.999Z</time></trkpt><trkpt lat="45.60680455933979" lon="10.110666302031289"><ele>199.0</ele><time>2026-04-02T16:39:44.999Z</time></trkpt><trkpt lat="45.60674320327222" lon="10.110608987603316"><ele>198.0</ele><time>2026-04-02T16:39:47.999Z</time></trkpt><trkpt lat="45.60669543911689" lon="10.110538266920559"><ele>197.0</ele><time>2026-04-02T16:39:50.999Z</time></trkpt><trkpt lat="45.606637877443475" lon="10.110491849527426"><ele>196.0</ele><time>2026-04-02T16:39:53.999Z</time></trkpt><trkpt lat="45.6065655514196" lon="10.110448895343758"><ele>195.0</ele><time>2026-04-02T16:39:57.999Z</time></trkpt><trkpt lat="45.60650810182978" lon="10.110404394980538"><ele>194.0</ele><time>2026-04-02T16:40:01Z</time></trkpt><trkpt lat="45.60645028924841" lon="10.110367574295243"><ele>194.0</ele><time>2026-04-02T16:40:04Z</time></trkpt><trkpt lat="45.60638794305275" lon="10.110299503277872"><ele>194.0</ele><time>2026-04-02T16:40:08Z</time></trkpt><trkpt lat="45.60633152958502" lon="10.11025811458285"><ele>194.0</ele><time>2026-04-02T16:40:11Z</time></trkpt><trkpt lat="45.606267520675736" lon="10.110193291697364"><ele>194.0</ele><time>2026-04-02T16:40:14Z</time></trkpt><trkpt lat="45.6062304428074" lon="10.11011253802613"><ele>194.0</ele><time>2026-04-02T16:40:16Z</time></trkpt><trkpt lat="45.60620740095473" lon="10.110028771315683"><ele>194.0</ele><time>2026-04-02T16:40:18Z</time></trkpt><trkpt lat="45.6061851703517" lon="10.109921511070196"><ele>194.0</ele><time>2026-04-02T16:40:21Z</time></trkpt><trkpt lat="45.60615532011762" lon="10.109825381612088"><ele>194.28571428571428</ele><time>2026-04-02T16:40:24Z</time></trkpt><trkpt lat="45.60611145293737" lon="10.109749284295162"><ele>194.57142857142858</ele><time>2026-04-02T16:40:27Z</time></trkpt><trkpt lat="45.60604742725062" lon="10.109702726228583"><ele>194.85714285714286</ele><time>2026-04-02T16:40:30Z</time></trkpt><trkpt lat="45.60598228662999" lon="10.109682128316663"><ele>195.14285714285714</ele><time>2026-04-02T16:40:33Z</time></trkpt><trkpt lat="45.60590610546709" lon="10.109674962395822"><ele>195.42857142857144</ele><time>2026-04-02T16:40:37Z</time></trkpt><trkpt lat="45.605823154375905" lon="10.109645309080122"><ele>195.71428571428572</ele><time>2026-04-02T16:40:41Z</time></trkpt><trkpt lat="45.605757952907375" lon="10.109607579266271"><ele>196.0</ele><time>2026-04-02T16:40:44Z</time></trkpt><trkpt lat="45.605698066547326" lon="10.109572324681983"><ele>195.99999999999997</ele><time>2026-04-02T16:40:47Z</time></trkpt><trkpt lat="45.60563705714141" lon="10.109531799863484"><ele>196.0</ele><time>2026-04-02T16:40:50Z</time></trkpt><trkpt lat="45.60556385626418" lon="10.109464154424497"><ele>196.0</ele><time>2026-04-02T16:40:53Z</time></trkpt><trkpt lat="45.60549364320196" lon="10.109422543371387"><ele>196.0</ele><time>2026-04-02T16:40:56Z</time></trkpt><trkpt lat="45.60542566161424" lon="10.109368952142875"><ele>195.99999999999997</ele><time>2026-04-02T16:40:59Z</time></trkpt><trkpt lat="45.60533940335916" lon="10.10932443393165"><ele>196.0</ele><time>2026-04-02T16:41:02Z</time></trkpt><trkpt lat="45.60526575321184" lon="10.109340416027393"><ele>194.85714285714286</ele><time>2026-04-02T16:41:05Z</time></trkpt><trkpt lat="45.60520234571685" lon="10.109380462795626"><ele>193.71428571428572</ele><time>2026-04-02T16:41:08Z</time></trkpt><trkpt lat="45.6051463596371" lon="10.109443689794261"><ele>192.57142857142856</ele><time>2026-04-02T16:41:11Z</time></trkpt><trkpt lat="45.60509138834904" lon="10.109499055496858"><ele>191.42857142857144</ele><time>2026-04-02T16:41:14Z</time></trkpt><trkpt lat="45.60504707997019" lon="10.109568425470615"><ele>190.28571428571428</ele><time>2026-04-02T16:41:17Z</time></trkpt><trkpt lat="45.60500949716885" lon="10.109647775509384"><ele>189.14285714285714</ele><time>2026-04-02T16:41:20Z</time></trkpt><trkpt lat="45.604984598079085" lon="10.109739816267478"><ele>188.0</ele><time>2026-04-02T16:41:23Z</time></trkpt><trkpt lat="45.604963019907" lon="10.109829638293606"><ele>187.57142857142856</ele><time>2026-04-02T16:41:26Z</time></trkpt><trkpt lat="45.60492307894665" lon="10.109915042730242"><ele>187.14285714285714</ele><time>2026-04-02T16:41:29Z</time></trkpt><trkpt lat="45.60489125730043" lon="10.109993953492861"><ele>186.71428571428572</ele><time>2026-04-02T16:41:32Z</time></trkpt><trkpt lat="45.604840290664455" lon="10.110062312834911"><ele>186.28571428571428</ele><time>2026-04-02T16:41:35Z</time></trkpt><trkpt lat="45.604787418295075" lon="10.11013391471975"><ele>185.85714285714286</ele><time>2026-04-02T16:41:38Z</time></trkpt><trkpt lat="45.60473311024575" lon="10.110204901975731"><ele>185.42857142857142</ele><time>2026-04-02T16:41:41Z</time></trkpt><trkpt lat="45.60467802307528" lon="10.110271082262392"><ele>185.0</ele><time>2026-04-02T16:41:44Z</time></trkpt><trkpt lat="45.60463071639776" lon="10.110338274866745"><ele>184.99999999999997</ele><time>2026-04-02T16:41:47Z</time></trkpt><trkpt lat="45.6045776988046" lon="10.110413408424009"><ele>185.0</ele><time>2026-04-02T16:41:50Z</time></trkpt><trkpt lat="45.60454188890466" lon="10.110499084870328"><ele>185.0</ele><time>2026-04-02T16:41:53Z</time></trkpt><trkpt lat="45.60451539803748" lon="10.110590385467967"><ele>185.0</ele><time>2026-04-02T16:41:55.999Z</time></trkpt><trkpt lat="45.604494338269774" lon="10.110689317284159"><ele>185.0</ele><time>2026-04-02T16:41:58.999Z</time></trkpt><trkpt lat="45.60446771601727" lon="10.110783084505924"><ele>184.99999999999997</ele><time>2026-04-02T16:42:02Z</time></trkpt><trkpt lat="45.60444403412442" lon="10.110883288736476"><ele>185.0</ele><time>2026-04-02T16:42:04.999Z</time></trkpt><trkpt lat="45.6044139557247" lon="10.110963642109622"><ele>184.83333333333331</ele><time>2026-04-02T16:42:07.999Z</time></trkpt><trkpt lat="45.604364478049824" lon="10.111062056564379"><ele>184.66666666666666</ele><time>2026-04-02T16:42:11.999Z</time></trkpt><trkpt lat="45.604335800824124" lon="10.111164819670421"><ele>184.5</ele><time>2026-04-02T16:42:14.999Z</time></trkpt><trkpt lat="45.604309802877175" lon="10.11127251945257"><ele>184.33333333333334</ele><time>2026-04-02T16:42:19.999Z</time></trkpt><trkpt lat="45.604291279882844" lon="10.111380772472588"><ele>184.16666666666669</ele><time>2026-04-02T16:42:24Z</time></trkpt><trkpt lat="45.60428684434558" lon="10.111486081609053"><ele>184.0</ele><time>2026-04-02T16:42:27Z</time></trkpt><trkpt lat="45.60426629037658" lon="10.111585981567869"><ele>184.0</ele><time>2026-04-02T16:42:30Z</time></trkpt><trkpt lat="45.60427909671858" lon="10.111685540361593"><ele>184.0</ele><time>2026-04-02T16:42:34Z</time></trkpt><trkpt lat="45.60427675017149" lon="10.111794438432153"><ele>184.0</ele><time>2026-04-02T16:42:37Z</time></trkpt><trkpt lat="45.60424321380458" lon="10.111900930369577"><ele>184.0</ele><time>2026-04-02T16:42:40Z</time></trkpt><trkpt lat="45.60419011694333" lon="10.111974197289458"><ele>184.0</ele><time>2026-04-02T16:42:43Z</time></trkpt><trkpt lat="45.604205259061416" lon="10.112078026520832"><ele>184.0</ele><time>2026-04-02T16:42:47Z</time></trkpt><trkpt lat="45.60412405115635" lon="10.112118680281206"><ele>184.0</ele><time>2026-04-02T16:42:50Z</time></trkpt><trkpt lat="45.60405511072681" lon="10.11215677783876"><ele>184.0</ele><time>2026-04-02T16:42:52Z</time></trkpt><trkpt lat="45.6040015060368" lon="10.112204276542808"><ele>184.0</ele><time>2026-04-02T16:42:54Z</time></trkpt><trkpt lat="45.603919547212605" lon="10.112230504207188"><ele>184.0</ele><time>2026-04-02T16:42:57Z</time></trkpt><trkpt lat="45.60383205063483" lon="10.112236646669814"><ele>184.0</ele><time>2026-04-02T16:43:01Z</time></trkpt><trkpt lat="45.603769588825294" lon="10.112252446547343"><ele>184.0</ele><time>2026-04-02T16:43:03Z</time></trkpt><trkpt lat="45.603697318032616" lon="10.112228581654739"><ele>184.0</ele><time>2026-04-02T16:43:06Z</time></trkpt><trkpt lat="45.60362076928962" lon="10.112209629533792"><ele>183.42857142857144</ele><time>2026-04-02T16:43:09Z</time></trkpt><trkpt lat="45.60354395522315" lon="10.112188534932118"><ele>182.85714285714283</ele><time>2026-04-02T16:43:12Z</time></trkpt><trkpt lat="45.60347733296841" lon="10.112141954225491"><ele>182.28571428571428</ele><time>2026-04-02T16:43:15Z</time></trkpt><trkpt lat="45.603419935171495" lon="10.112079744154572"><ele>181.71428571428572</ele><time>2026-04-02T16:43:18Z</time></trkpt><trkpt lat="45.603357050261565" lon="10.112028815404857"><ele>181.14285714285717</ele><time>2026-04-02T16:43:21Z</time></trkpt><trkpt lat="45.60328304279665" lon="10.112009975766393"><ele>180.57142857142856</ele><time>2026-04-02T16:43:24Z</time></trkpt><trkpt lat="45.60321633330045" lon="10.11197700458162"><ele>180.0</ele><time>2026-04-02T16:43:27Z</time></trkpt><trkpt lat="45.60314704242792" lon="10.111918862188586"><ele>180.0</ele><time>2026-04-02T16:43:30Z</time></trkpt><trkpt lat="45.60307291744696" lon="10.111945048685241"><ele>180.0</ele><time>2026-04-02T16:43:33Z</time></trkpt><trkpt lat="45.60301286864118" lon="10.112003029098545"><ele>180.0</ele><time>2026-04-02T16:43:36Z</time></trkpt><trkpt lat="45.602973493247724" lon="10.112086500549417"><ele>180.0</ele><time>2026-04-02T16:43:39Z</time></trkpt><trkpt lat="45.60293354043074" lon="10.11215924147089"><ele>180.0</ele><time>2026-04-02T16:43:42Z</time></trkpt><trkpt lat="45.60289315536407" lon="10.112245857315568"><ele>180.0</ele><time>2026-04-02T16:43:45Z</time></trkpt><trkpt lat="45.60286054875992" lon="10.112340835388839"><ele>180.0</ele><time>2026-04-02T16:43:48Z</time></trkpt><trkpt lat="45.60282509423642" lon="10.112429856452922"><ele>180.57142857142856</ele><time>2026-04-02T16:43:51Z</time></trkpt><trkpt lat="45.60278973295598" lon="10.112510372013752"><ele>181.14285714285717</ele><time>2026-04-02T16:43:54Z</time></trkpt><trkpt lat="45.60274961079952" lon="10.11258063651823"><ele>181.71428571428572</ele><time>2026-04-02T16:43:57Z</time></trkpt><trkpt lat="45.6026782820467" lon="10.112575778802523"><ele>182.28571428571428</ele><time>2026-04-02T16:43:59.999Z</time></trkpt><trkpt lat="45.60261147646091" lon="10.112530129887894"><ele>182.85714285714283</ele><time>2026-04-02T16:44:03Z</time></trkpt><trkpt lat="45.60255697736052" lon="10.112454116496176"><ele>183.42857142857144</ele><time>2026-04-02T16:44:05.999Z</time></trkpt><trkpt lat="45.60250918861197" lon="10.112366248839157"><ele>184.0</ele><time>2026-04-02T16:44:09Z</time></trkpt><trkpt lat="45.60246781019253" lon="10.112279274233298"><ele>184.0</ele><time>2026-04-02T16:44:12Z</time></trkpt><trkpt lat="45.602430934491885" lon="10.112191859503886"><ele>184.0</ele><time>2026-04-02T16:44:15Z</time></trkpt><trkpt lat="45.60239299830667" lon="10.112107952302855"><ele>184.0</ele><time>2026-04-02T16:44:18Z</time></trkpt><trkpt lat="45.60234510651908" lon="10.112031854540263"><ele>184.0</ele><time>2026-04-02T16:44:21Z</time></trkpt><trkpt lat="45.60229911370346" lon="10.11194541624667"><ele>184.0</ele><time>2026-04-02T16:44:24Z</time></trkpt><trkpt lat="45.602247114894254" lon="10.111874142131477"><ele>184.0</ele><time>2026-04-02T16:44:27Z</time></trkpt><trkpt lat="45.6021941101012" lon="10.111801064929413"><ele>184.0</ele><time>2026-04-02T16:44:30Z</time></trkpt><trkpt lat="45.602134426687655" lon="10.111742144941003"><ele>184.0</ele><time>2026-04-02T16:44:33Z</time></trkpt><trkpt lat="45.602077945797944" lon="10.111683865876008"><ele>184.0</ele><time>2026-04-02T16:44:36Z</time></trkpt><trkpt lat="45.60200950609897" lon="10.111640696696213"><ele>184.0</ele><time>2026-04-02T16:44:39Z</time></trkpt><trkpt lat="45.60195394485299" lon="10.111573749011185"><ele>184.0</ele><time>2026-04-02T16:44:42Z</time></trkpt><trkpt lat="45.60190328038177" lon="10.111512356120427"><ele>184.0</ele><time>2026-04-02T16:44:45Z</time></trkpt><trkpt lat="45.60182338552852" lon="10.111495566460157"><ele>184.0</ele><time>2026-04-02T16:44:49Z</time></trkpt><trkpt lat="45.601740667455694" lon="10.111496333704787"><ele>184.0</ele><time>2026-04-02T16:44:53Z</time></trkpt><trkpt lat="45.601677791302976" lon="10.11151026735542"><ele>183.83333333333334</ele><time>2026-04-02T16:44:56Z</time></trkpt><trkpt lat="45.60160673813194" lon="10.111454055160726"><ele>183.66666666666669</ele><time>2026-04-02T16:44:59Z</time></trkpt><trkpt lat="45.60153680448738" lon="10.11139065101371"><ele>183.5</ele><time>2026-04-02T16:45:02Z</time></trkpt><trkpt lat="45.601472776604176" lon="10.111328897914728"><ele>183.33333333333334</ele><time>2026-04-02T16:45:05Z</time></trkpt><trkpt lat="45.60143838507754" lon="10.111246005364306"><ele>183.16666666666666</ele><time>2026-04-02T16:45:07Z</time></trkpt><trkpt lat="45.601397622773355" lon="10.111146014850009"><ele>183.0</ele><time>2026-04-02T16:45:10Z</time></trkpt><trkpt lat="45.60135127395781" lon="10.111048550971603"><ele>183.0</ele><time>2026-04-02T16:45:13Z</time></trkpt><trkpt lat="45.601314005246685" lon="10.110951913666058"><ele>183.0</ele><time>2026-04-02T16:45:16Z</time></trkpt><trkpt lat="45.60127756823958" lon="10.110867996696399"><ele>183.0</ele><time>2026-04-02T16:45:19Z</time></trkpt><trkpt lat="45.601219205605894" lon="10.110799876496726"><ele>183.0</ele><time>2026-04-02T16:45:22Z</time></trkpt><trkpt lat="45.60115997506382" lon="10.110731820248954"><ele>183.0</ele><time>2026-04-02T16:45:25Z</time></trkpt><trkpt lat="45.60109201096754" lon="10.110685979865211"><ele>183.0</ele><time>2026-04-02T16:45:28Z</time></trkpt><trkpt lat="45.60102666766407" lon="10.110668134276894"><ele>183.0</ele><time>2026-04-02T16:45:31Z</time></trkpt><trkpt lat="45.600954065334044" lon="10.110637043545413"><ele>182.14285714285714</ele><time>2026-04-02T16:45:34Z</time></trkpt><trkpt lat="45.60088932436242" lon="10.110621984590129"><ele>181.28571428571428</ele><time>2026-04-02T16:45:37Z</time></trkpt><trkpt lat="45.600815328877275" lon="10.110598575990243"><ele>180.42857142857144</ele><time>2026-04-02T16:45:40Z</time></trkpt><trkpt lat="45.60074412927734" lon="10.11058011497343"><ele>179.57142857142856</ele><time>2026-04-02T16:45:43Z</time></trkpt><trkpt lat="45.60067736295029" lon="10.110580894393422"><ele>178.7142857142857</ele><time>2026-04-02T16:45:46Z</time></trkpt><trkpt lat="45.60060912003753" lon="10.110603074196039"><ele>177.85714285714286</ele><time>2026-04-02T16:45:49Z</time></trkpt><trkpt lat="45.60052940440115" lon="10.110595898344911"><ele>177.0</ele><time>2026-04-02T16:45:53Z</time></trkpt><trkpt lat="45.60045255486004" lon="10.110576855954791"><ele>177.0</ele><time>2026-04-02T16:45:56Z</time></trkpt><trkpt lat="45.600382294135" lon="10.11055929762863"><ele>177.0</ele><time>2026-04-02T16:45:59Z</time></trkpt><trkpt lat="45.600299039168924" lon="10.110575307822234"><ele>177.0</ele><time>2026-04-02T16:46:02Z</time></trkpt><trkpt lat="45.60021571978191" lon="10.110593484948694"><ele>177.0</ele><time>2026-04-02T16:46:05Z</time></trkpt><trkpt lat="45.600137110797306" lon="10.110621157861521"><ele>177.0</ele><time>2026-04-02T16:46:08Z</time></trkpt><trkpt lat="45.600066265437974" lon="10.110650412946871"><ele>177.0</ele><time>2026-04-02T16:46:11Z</time></trkpt><trkpt lat="45.59999253918884" lon="10.11069768548927"><ele>177.14285714285714</ele><time>2026-04-02T16:46:14Z</time></trkpt><trkpt lat="45.599931048537734" lon="10.110748113600934"><ele>177.28571428571428</ele><time>2026-04-02T16:46:17Z</time></trkpt><trkpt lat="45.5998831113005" lon="10.110815972808227"><ele>177.42857142857142</ele><time>2026-04-02T16:46:20Z</time></trkpt><trkpt lat="45.59983959032598" lon="10.110891689107996"><ele>177.57142857142856</ele><time>2026-04-02T16:46:23Z</time></trkpt><trkpt lat="45.599796925193154" lon="10.110970815558613"><ele>177.71428571428572</ele><time>2026-04-02T16:46:26Z</time></trkpt><trkpt lat="45.599756509074766" lon="10.111048374417848"><ele>177.85714285714283</ele><time>2026-04-02T16:46:29Z</time></trkpt><trkpt lat="45.5997189513725" lon="10.111138610119315"><ele>178.0</ele><time>2026-04-02T16:46:32Z</time></trkpt><trkpt lat="45.59967824801329" lon="10.111211937082297"><ele>178.0</ele><time>2026-04-02T16:46:35Z</time></trkpt><trkpt lat="45.59962831642143" lon="10.111294008756548"><ele>178.0</ele><time>2026-04-02T16:46:38Z</time></trkpt><trkpt lat="45.59956561852546" lon="10.111365864649143"><ele>178.0</ele><time>2026-04-02T16:46:41Z</time></trkpt><trkpt lat="45.599515483604016" lon="10.111435814419629"><ele>178.0</ele><time>2026-04-02T16:46:44Z</time></trkpt><trkpt lat="45.599444169341204" lon="10.111468908041257"><ele>178.0</ele><time>2026-04-02T16:46:47Z</time></trkpt><trkpt lat="45.59937168975715" lon="10.111479148423841"><ele>178.0</ele><time>2026-04-02T16:46:50Z</time></trkpt><trkpt lat="45.59929820861943" lon="10.111505619046456"><ele>177.57142857142856</ele><time>2026-04-02T16:46:53Z</time></trkpt><trkpt lat="45.5992238294279" lon="10.111503942576626"><ele>177.14285714285714</ele><time>2026-04-02T16:46:56Z</time></trkpt><trkpt lat="45.599156961401626" lon="10.111517298291336"><ele>176.71428571428572</ele><time>2026-04-02T16:46:59Z</time></trkpt><trkpt lat="45.59907953054439" lon="10.111513527600609"><ele>176.28571428571428</ele><time>2026-04-02T16:47:02Z</time></trkpt><trkpt lat="45.599003569089575" lon="10.111512122787142"><ele>175.85714285714286</ele><time>2026-04-02T16:47:05Z</time></trkpt><trkpt lat="45.59893483318967" lon="10.111500398111112"><ele>175.42857142857142</ele><time>2026-04-02T16:47:08Z</time></trkpt><trkpt lat="45.59885882949315" lon="10.111495726399646"><ele>175.0</ele><time>2026-04-02T16:47:11Z</time></trkpt><trkpt lat="45.59879375444357" lon="10.111480192243265"><ele>175.0</ele><time>2026-04-02T16:47:14Z</time></trkpt><trkpt lat="45.598726887595824" lon="10.111444740400463"><ele>175.0</ele><time>2026-04-02T16:47:17Z</time></trkpt><trkpt lat="45.5986616844035" lon="10.111402909933137"><ele>175.0</ele><time>2026-04-02T16:47:20Z</time></trkpt><trkpt lat="45.598599826751304" lon="10.111372784859173"><ele>175.0</ele><time>2026-04-02T16:47:23Z</time></trkpt><trkpt lat="45.59853796805819" lon="10.111341701871897"><ele>175.0</ele><time>2026-04-02T16:47:26Z</time></trkpt><trkpt lat="45.598475422844906" lon="10.111303935062928"><ele>175.0</ele><time>2026-04-02T16:47:29Z</time></trkpt><trkpt lat="45.59841180588399" lon="10.11123562575577"><ele>175.0</ele><time>2026-04-02T16:47:32Z</time></trkpt><trkpt lat="45.59835221857203" lon="10.111165257847947"><ele>174.85714285714286</ele><time>2026-04-02T16:47:35Z</time></trkpt><trkpt lat="45.598293200751606" lon="10.111103646558567"><ele>174.71428571428572</ele><time>2026-04-02T16:47:38Z</time></trkpt><trkpt lat="45.598235896266125" lon="10.111039561847253"><ele>174.57142857142856</ele><time>2026-04-02T16:47:41Z</time></trkpt><trkpt lat="45.598171231491676" lon="10.111008753576925"><ele>174.42857142857144</ele><time>2026-04-02T16:47:44Z</time></trkpt><trkpt lat="45.59809289897778" lon="10.110984933336422"><ele>174.28571428571428</ele><time>2026-04-02T16:47:47Z</time></trkpt><trkpt lat="45.59801925027268" lon="10.110976523802645"><ele>174.14285714285714</ele><time>2026-04-02T16:47:50Z</time></trkpt><trkpt lat="45.59795712680699" lon="10.110951136643786"><ele>174.0</ele><time>2026-04-02T16:47:53Z</time></trkpt><trkpt lat="45.59789235521658" lon="10.110925737642761"><ele>174.28571428571428</ele><time>2026-04-02T16:47:56Z</time></trkpt><trkpt lat="45.59783186832099" lon="10.110865681949345"><ele>174.57142857142858</ele><time>2026-04-02T16:47:59Z</time></trkpt><trkpt lat="45.59778360927926" lon="10.110775890934347"><ele>174.85714285714286</ele><time>2026-04-02T16:48:02Z</time></trkpt><trkpt lat="45.597729813444474" lon="10.11072197333761"><ele>175.14285714285714</ele><time>2026-04-02T16:48:05Z</time></trkpt><trkpt lat="45.597659027875956" lon="10.110736288703563"><ele>175.42857142857142</ele><time>2026-04-02T16:48:08Z</time></trkpt><trkpt lat="45.59761901956423" lon="10.110828612928898"><ele>175.71428571428572</ele><time>2026-04-02T16:48:11Z</time></trkpt><trkpt lat="45.597603586732085" lon="10.110930947361739"><ele>176.0</ele><time>2026-04-02T16:48:14Z</time></trkpt><trkpt lat="45.597567101395576" lon="10.111019767584779"><ele>176.16666666666666</ele><time>2026-04-02T16:48:17.001Z</time></trkpt><trkpt lat="45.59752460660267" lon="10.111127496076113"><ele>176.33333333333331</ele><time>2026-04-02T16:48:21Z</time></trkpt><trkpt lat="45.597499405643006" lon="10.11124107494364"><ele>176.5</ele><time>2026-04-02T16:48:25.001Z</time></trkpt><trkpt lat="45.59746142087159" lon="10.111347024656292"><ele>176.66666666666666</ele><time>2026-04-02T16:48:29.001Z</time></trkpt><trkpt lat="45.59737259869358" lon="10.111373881335544"><ele>176.83333333333334</ele><time>2026-04-02T16:48:31.001Z</time></trkpt><trkpt lat="45.59730575871626" lon="10.11144523652702"><ele>177.0</ele><time>2026-04-02T16:48:34.001Z</time></trkpt><trkpt lat="45.59726961387362" lon="10.111535537743654"><ele>177.5</ele><time>2026-04-02T16:48:37.001Z</time></trkpt><trkpt lat="45.597241982395786" lon="10.111632548553589"><ele>178.0</ele><time>2026-04-02T16:48:40.001Z</time></trkpt><trkpt lat="45.597217955095566" lon="10.111738370818072"><ele>178.5</ele><time>2026-04-02T16:48:43.001Z</time></trkpt><trkpt lat="45.5971696096606" lon="10.111820008085974"><ele>179.0</ele><time>2026-04-02T16:48:46.001Z</time></trkpt><trkpt lat="45.59712523501242" lon="10.111919265731217"><ele>179.5</ele><time>2026-04-02T16:48:50.001Z</time></trkpt><trkpt lat="45.59706550215436" lon="10.112009757586941"><ele>180.0</ele><time>2026-04-02T16:48:53.001Z</time></trkpt><trkpt lat="45.59700651409714" lon="10.112088547145062"><ele>179.28571428571428</ele><time>2026-04-02T16:48:56.001Z</time></trkpt><trkpt lat="45.59695881089463" lon="10.112167271961185"><ele>178.57142857142858</ele><time>2026-04-02T16:48:59.001Z</time></trkpt><trkpt lat="45.596918046032606" lon="10.112260761572687"><ele>177.85714285714286</ele><time>2026-04-02T16:49:02.001Z</time></trkpt><trkpt lat="45.596914854348" lon="10.112370948768284"><ele>177.14285714285714</ele><time>2026-04-02T16:49:05.001Z</time></trkpt><trkpt lat="45.5969051314024" lon="10.112469605868013"><ele>176.42857142857144</ele><time>2026-04-02T16:49:08.001Z</time></trkpt><trkpt lat="45.596892612676086" lon="10.112565415523694"><ele>175.71428571428572</ele><time>2026-04-02T16:49:11.001Z</time></trkpt><trkpt lat="45.59686918180909" lon="10.112662890408117"><ele>175.0</ele><time>2026-04-02T16:49:14.001Z</time></trkpt><trkpt lat="45.596851045439" lon="10.112759105532387"><ele>174.71428571428572</ele><time>2026-04-02T16:49:17.001Z</time></trkpt><trkpt lat="45.59683551532528" lon="10.112861058055971"><ele>174.42857142857144</ele><time>2026-04-02T16:49:20.001Z</time></trkpt><trkpt lat="45.596832435367276" lon="10.11296372383003"><ele>174.14285714285714</ele><time>2026-04-02T16:49:23.001Z</time></trkpt><trkpt lat="45.59681529992609" lon="10.113071273477232"><ele>173.85714285714286</ele><time>2026-04-02T16:49:26.001Z</time></trkpt><trkpt lat="45.59680427785654" lon="10.113173944508361"><ele>173.57142857142858</ele><time>2026-04-02T16:49:29.001Z</time></trkpt><trkpt lat="45.59678677466811" lon="10.11327185902796"><ele>173.28571428571428</ele><time>2026-04-02T16:49:32.001Z</time></trkpt><trkpt lat="45.596783757477255" lon="10.113370942506913"><ele>173.0</ele><time>2026-04-02T16:49:34.999Z</time></trkpt><trkpt lat="45.59676851795026" lon="10.11346541403325"><ele>173.0</ele><time>2026-04-02T16:49:37.996Z</time></trkpt><trkpt lat="45.59677357840569" lon="10.113572794211342"><ele>173.0</ele><time>2026-04-02T16:49:40.994Z</time></trkpt><trkpt lat="45.596760750518214" lon="10.113674126951699"><ele>173.0</ele><time>2026-04-02T16:49:43.992Z</time></trkpt><trkpt lat="45.59676499011366" lon="10.113770348623495"><ele>173.0</ele><time>2026-04-02T16:49:46.99Z</time></trkpt><trkpt lat="45.59677823049199" lon="10.113865517912169"><ele>173.0</ele><time>2026-04-02T16:49:49.989Z</time></trkpt><trkpt lat="45.59679802576073" lon="10.11396617630813"><ele>173.0</ele><time>2026-04-02T16:49:52.988Z</time></trkpt><trkpt lat="45.596807484936555" lon="10.114070676401594"><ele>173.0</ele><time>2026-04-02T16:49:55.987Z</time></trkpt><trkpt lat="45.59682555593228" lon="10.114165975074544"><ele>172.85714285714286</ele><time>2026-04-02T16:49:58.986Z</time></trkpt><trkpt lat="45.59683986752133" lon="10.114264598392145"><ele>172.71428571428572</ele><time>2026-04-02T16:50:01.986Z</time></trkpt><trkpt lat="45.59685270000482" lon="10.114370279079806"><ele>172.57142857142858</ele><time>2026-04-02T16:50:04.985Z</time></trkpt><trkpt lat="45.59686371300315" lon="10.11448069478022"><ele>172.42857142857144</ele><time>2026-04-02T16:50:08.985Z</time></trkpt><trkpt lat="45.59688704250686" lon="10.114572040196201"><ele>172.28571428571428</ele><time>2026-04-02T16:50:11.984Z</time></trkpt><trkpt lat="45.596895474335014" lon="10.114680115499572"><ele>172.14285714285717</ele><time>2026-04-02T16:50:14.984Z</time></trkpt><trkpt lat="45.59691259534853" lon="10.114783745010604"><ele>172.0</ele><time>2026-04-02T16:50:17.983Z</time></trkpt><trkpt lat="45.59692981976435" lon="10.114884040977502"><ele>171.85714285714286</ele><time>2026-04-02T16:50:20.983Z</time></trkpt><trkpt lat="45.59694146921128" lon="10.11499267113389"><ele>171.71428571428572</ele><time>2026-04-02T16:50:23.983Z</time></trkpt><trkpt lat="45.59695061884268" lon="10.1150926376878"><ele>171.57142857142856</ele><time>2026-04-02T16:50:26.983Z</time></trkpt><trkpt lat="45.59697108140242" lon="10.115180880228342"><ele>171.42857142857144</ele><time>2026-04-02T16:50:29.982Z</time></trkpt><trkpt lat="45.5969948647681" lon="10.115278116759505"><ele>171.28571428571428</ele><time>2026-04-02T16:50:32.982Z</time></trkpt><trkpt lat="45.59701390859082" lon="10.115377290165506"><ele>171.14285714285714</ele><time>2026-04-02T16:50:35.982Z</time></trkpt><trkpt lat="45.59702508404094" lon="10.115489252566972"><ele>171.0</ele><time>2026-04-02T16:50:38.982Z</time></trkpt><trkpt lat="45.59703961243165" lon="10.11559119477579"><ele>171.14285714285714</ele><time>2026-04-02T16:50:41.982Z</time></trkpt><trkpt lat="45.59704111301016" lon="10.115699677331966"><ele>171.28571428571428</ele><time>2026-04-02T16:50:44.982Z</time></trkpt><trkpt lat="45.597054264101494" lon="10.11580513414371"><ele>171.42857142857144</ele><time>2026-04-02T16:50:47.982Z</time></trkpt><trkpt lat="45.597079896535305" lon="10.115907994580036"><ele>171.57142857142856</ele><time>2026-04-02T16:50:50.982Z</time></trkpt><trkpt lat="45.5971009610534" lon="10.116007640599461"><ele>171.71428571428572</ele><time>2026-04-02T16:50:53.982Z</time></trkpt><trkpt lat="45.59710664696882" lon="10.116107758799924"><ele>171.85714285714286</ele><time>2026-04-02T16:50:56.982Z</time></trkpt><trkpt lat="45.597112888507596" lon="10.116207427503227"><ele>172.0</ele><time>2026-04-02T16:50:59.981Z</time></trkpt><trkpt lat="45.597126555261205" lon="10.116316376461112"><ele>172.00000000000003</ele><time>2026-04-02T16:51:02.981Z</time></trkpt><trkpt lat="45.597135007915625" lon="10.116420775209889"><ele>172.0</ele><time>2026-04-02T16:51:05.981Z</time></trkpt><trkpt lat="45.597144557672834" lon="10.11652613256735"><ele>172.0</ele><time>2026-04-02T16:51:08.981Z</time></trkpt><trkpt lat="45.59713852082192" lon="10.116625878504973"><ele>172.0</ele><time>2026-04-02T16:51:11.981Z</time></trkpt><trkpt lat="45.597143598467035" lon="10.116723896870552"><ele>172.0</ele><time>2026-04-02T16:51:14.981Z</time></trkpt><trkpt lat="45.59714201751317" lon="10.116822188768499"><ele>172.00000000000003</ele><time>2026-04-02T16:51:17.981Z</time></trkpt><trkpt lat="45.59713863596999" lon="10.11691735341466"><ele>172.0</ele><time>2026-04-02T16:51:20.981Z</time></trkpt><trkpt lat="45.59713593470063" lon="10.117020912549696"><ele>171.85714285714286</ele><time>2026-04-02T16:51:23.981Z</time></trkpt><trkpt lat="45.59712513870534" lon="10.117123384384556"><ele>171.71428571428572</ele><time>2026-04-02T16:51:26.981Z</time></trkpt><trkpt lat="45.597123371518734" lon="10.11721849065148"><ele>171.57142857142856</ele><time>2026-04-02T16:51:29.981Z</time></trkpt><trkpt lat="45.59712145983996" lon="10.1173217457098"><ele>171.42857142857144</ele><time>2026-04-02T16:51:32.981Z</time></trkpt><trkpt lat="45.597118407917364" lon="10.11741559232479"><ele>171.28571428571428</ele><time>2026-04-02T16:51:35.981Z</time></trkpt><trkpt lat="45.59711017633532" lon="10.117513510079869"><ele>171.14285714285714</ele><time>2026-04-02T16:51:38.981Z</time></trkpt><trkpt lat="45.59709434780565" lon="10.11763118206306"><ele>171.0</ele><time>2026-04-02T16:51:42.981Z</time></trkpt><trkpt lat="45.597089763642686" lon="10.117729622613304"><ele>170.85714285714283</ele><time>2026-04-02T16:51:45.981Z</time></trkpt><trkpt lat="45.597080680183524" lon="10.117823482599116"><ele>170.71428571428572</ele><time>2026-04-02T16:51:48.981Z</time></trkpt><trkpt lat="45.59706688521966" lon="10.117936084518254"><ele>170.57142857142856</ele><time>2026-04-02T16:51:51.981Z</time></trkpt><trkpt lat="45.597058838631995" lon="10.118037624378596"><ele>170.42857142857142</ele><time>2026-04-02T16:51:54.981Z</time></trkpt><trkpt lat="45.59705312307339" lon="10.11814655304901"><ele>170.28571428571428</ele><time>2026-04-02T16:51:57.981Z</time></trkpt><trkpt lat="45.59705041672865" lon="10.118243023310301"><ele>170.14285714285714</ele><time>2026-04-02T16:52:00.981Z</time></trkpt><trkpt lat="45.597029658255394" lon="10.118342263835682"><ele>170.0</ele><time>2026-04-02T16:52:03.981Z</time></trkpt><trkpt lat="45.59702744434635" lon="10.1184432474659"><ele>169.85714285714286</ele><time>2026-04-02T16:52:06.981Z</time></trkpt><trkpt lat="45.597024711540406" lon="10.118533318544733"><ele>169.7142857142857</ele><time>2026-04-02T16:52:09.981Z</time></trkpt><trkpt lat="45.59701531013258" lon="10.118631808761346"><ele>169.57142857142856</ele><time>2026-04-02T16:52:12.981Z</time></trkpt><trkpt lat="45.59701095891188" lon="10.118729238910843"><ele>169.42857142857144</ele><time>2026-04-02T16:52:15.981Z</time></trkpt><trkpt lat="45.596996923757416" lon="10.118824502162585"><ele>169.28571428571428</ele><time>2026-04-02T16:52:18.981Z</time></trkpt><trkpt lat="45.59698136665352" lon="10.118929253583756"><ele>169.14285714285714</ele><time>2026-04-02T16:52:21.981Z</time></trkpt><trkpt lat="45.59696252273473" lon="10.119024087279287"><ele>169.0</ele><time>2026-04-02T16:52:24.981Z</time></trkpt><trkpt lat="45.59695210521596" lon="10.119126098933819"><ele>169.0</ele><time>2026-04-02T16:52:27.981Z</time></trkpt><trkpt lat="45.5969482260913" lon="10.119223823247166"><ele>169.0</ele><time>2026-04-02T16:52:30.982Z</time></trkpt><trkpt lat="45.596939315664414" lon="10.11933115461614"><ele>169.0</ele><time>2026-04-02T16:52:33.981Z</time></trkpt><trkpt lat="45.596928135370604" lon="10.119430327870784"><ele>169.0</ele><time>2026-04-02T16:52:36.981Z</time></trkpt><trkpt lat="45.596912055393744" lon="10.119535316101006"><ele>169.0</ele><time>2026-04-02T16:52:39.981Z</time></trkpt><trkpt lat="45.59690456836118" lon="10.119631799526655"><ele>169.0</ele><time>2026-04-02T16:52:42.981Z</time></trkpt><trkpt lat="45.5969082502276" lon="10.119745189558147"><ele>169.0</ele><time>2026-04-02T16:52:46.981Z</time></trkpt><trkpt lat="45.59691903582955" lon="10.119848061723683"><ele>168.57142857142858</ele><time>2026-04-02T16:52:49.981Z</time></trkpt><trkpt lat="45.59689844724792" lon="10.119948653033676"><ele>168.14285714285714</ele><time>2026-04-02T16:52:52.981Z</time></trkpt><trkpt lat="45.59688706634726" lon="10.120050343573512"><ele>167.71428571428572</ele><time>2026-04-02T16:52:55.981Z</time></trkpt><trkpt lat="45.596885196678784" lon="10.120148159482575"><ele>167.28571428571428</ele><time>2026-04-02T16:52:58.981Z</time></trkpt><trkpt lat="45.59688473297345" lon="10.120246090000869"><ele>166.85714285714286</ele><time>2026-04-02T16:53:01.981Z</time></trkpt><trkpt lat="45.59687332058195" lon="10.12036141570119"><ele>166.42857142857142</ele><time>2026-04-02T16:53:05.981Z</time></trkpt><trkpt lat="45.596855939476285" lon="10.120459465343632"><ele>166.0</ele><time>2026-04-02T16:53:08.981Z</time></trkpt><trkpt lat="45.59685054495217" lon="10.120563862826703"><ele>166.0</ele><time>2026-04-02T16:53:11.981Z</time></trkpt><trkpt lat="45.59684460141641" lon="10.120659117062782"><ele>166.0</ele><time>2026-04-02T16:53:14.981Z</time></trkpt><trkpt lat="45.59684903685018" lon="10.120761192551154"><ele>166.0</ele><time>2026-04-02T16:53:17.981Z</time></trkpt><trkpt lat="45.596839184557304" lon="10.120873678513336"><ele>166.0</ele><time>2026-04-02T16:53:20.981Z</time></trkpt><trkpt lat="45.59682055060511" lon="10.120983063791686"><ele>166.0</ele><time>2026-04-02T16:53:23.981Z</time></trkpt><trkpt lat="45.5968138615821" lon="10.12108717157681"><ele>166.0</ele><time>2026-04-02T16:53:26.981Z</time></trkpt><trkpt lat="45.59680616736414" lon="10.121176860474812"><ele>166.0</ele><time>2026-04-02T16:53:28.98Z</time></trkpt><trkpt lat="45.596815047817536" lon="10.121285602245164"><ele>165.85714285714286</ele><time>2026-04-02T16:53:31.98Z</time></trkpt><trkpt lat="45.596798753131154" lon="10.121399367444441"><ele>165.71428571428572</ele><time>2026-04-02T16:53:34.98Z</time></trkpt><trkpt lat="45.59678612250049" lon="10.121490661023806"><ele>165.57142857142858</ele><time>2026-04-02T16:53:37.98Z</time></trkpt><trkpt lat="45.5967587270942" lon="10.121580485627058"><ele>165.42857142857144</ele><time>2026-04-02T16:53:40.98Z</time></trkpt><trkpt lat="45.5967414147443" lon="10.12169046659659"><ele>165.28571428571428</ele><time>2026-04-02T16:53:43.98Z</time></trkpt><trkpt lat="45.5967290172405" lon="10.121786778538304"><ele>165.14285714285717</ele><time>2026-04-02T16:53:46.98Z</time></trkpt><trkpt lat="45.596701257913516" lon="10.121868406857596"><ele>165.0</ele><time>2026-04-02T16:53:49.98Z</time></trkpt><trkpt lat="45.59668084059463" lon="10.121975118954332"><ele>165.00000000000003</ele><time>2026-04-02T16:53:52.98Z</time></trkpt><trkpt lat="45.596655672077176" lon="10.122059201529225"><ele>165.0</ele><time>2026-04-02T16:53:55.98Z</time></trkpt><trkpt lat="45.59663495692375" lon="10.1221467447582"><ele>165.0</ele><time>2026-04-02T16:53:58.98Z</time></trkpt><trkpt lat="45.596616159354426" lon="10.122257121034382"><ele>165.0</ele><time>2026-04-02T16:54:01.98Z</time></trkpt><trkpt lat="45.59661213968857" lon="10.122357008978087"><ele>165.0</ele><time>2026-04-02T16:54:04.98Z</time></trkpt><trkpt lat="45.596585023083485" lon="10.122449401823811"><ele>165.00000000000003</ele><time>2026-04-02T16:54:07.98Z</time></trkpt><trkpt lat="45.59657495167652" lon="10.12254692696204"><ele>165.0</ele><time>2026-04-02T16:54:10.98Z</time></trkpt><trkpt lat="45.596577498613954" lon="10.12265468971453"><ele>165.16666666666666</ele><time>2026-04-02T16:54:13.98Z</time></trkpt><trkpt lat="45.59656534003762" lon="10.122771895930898"><ele>165.33333333333334</ele><time>2026-04-02T16:54:16.98Z</time></trkpt><trkpt lat="45.596577692157474" lon="10.122893661977452"><ele>165.5</ele><time>2026-04-02T16:54:19.98Z</time></trkpt><trkpt lat="45.596584426957605" lon="10.123008533391044"><ele>165.66666666666669</ele><time>2026-04-02T16:54:22.98Z</time></trkpt><trkpt lat="45.596603124475" lon="10.12312486940906"><ele>165.83333333333334</ele><time>2026-04-02T16:54:25.98Z</time></trkpt><trkpt lat="45.59660014384594" lon="10.123234224502301"><ele>166.0</ele><time>2026-04-02T16:54:28.981Z</time></trkpt><trkpt lat="45.59660910754538" lon="10.123340723362618"><ele>166.28571428571428</ele><time>2026-04-02T16:54:31.98Z</time></trkpt><trkpt lat="45.59661072207069" lon="10.123432983244323"><ele>166.57142857142858</ele><time>2026-04-02T16:54:34.98Z</time></trkpt><trkpt lat="45.596600985591756" lon="10.123530076239266"><ele>166.85714285714286</ele><time>2026-04-02T16:54:37.98Z</time></trkpt><trkpt lat="45.5966139667017" lon="10.123653604369267"><ele>167.14285714285714</ele><time>2026-04-02T16:54:40.981Z</time></trkpt><trkpt lat="45.59662164991659" lon="10.123753877765768"><ele>167.42857142857144</ele><time>2026-04-02T16:54:43.981Z</time></trkpt><trkpt lat="45.59662335081123" lon="10.123852905951743"><ele>167.71428571428572</ele><time>2026-04-02T16:54:46.981Z</time></trkpt><trkpt lat="45.59659589409366" lon="10.123958039845185"><ele>168.0</ele><time>2026-04-02T16:54:50.98Z</time></trkpt><trkpt lat="45.59660921760661" lon="10.124055137776875"><ele>168.0</ele><time>2026-04-02T16:54:55.98Z</time></trkpt><trkpt lat="45.596617982429684" lon="10.124150486424604"><ele>168.0</ele><time>2026-04-02T16:55:00.98Z</time></trkpt><trkpt lat="45.596642172947085" lon="10.124234393636991"><ele>168.0</ele><time>2026-04-02T16:55:03.98Z</time></trkpt><trkpt lat="45.59664545117889" lon="10.124340501229721"><ele>168.0</ele><time>2026-04-02T16:55:05.98Z</time></trkpt><trkpt lat="45.59664455905006" lon="10.124448262926693"><ele>168.0</ele><time>2026-04-02T16:55:07.98Z</time></trkpt><trkpt lat="45.59665662900829" lon="10.124559199890076"><ele>168.0</ele><time>2026-04-02T16:55:10.98Z</time></trkpt><trkpt lat="45.59666108170579" lon="10.124683786339805"><ele>168.0</ele><time>2026-04-02T16:55:13.98Z</time></trkpt><trkpt lat="45.5966742187033" lon="10.12479879232176"><ele>168.0</ele><time>2026-04-02T16:55:16.98Z</time></trkpt><trkpt lat="45.59662568539042" lon="10.124906975798584"><ele>168.0</ele><time>2026-04-02T16:55:19.98Z</time></trkpt><trkpt lat="45.59657782810496" lon="10.125005593086001"><ele>168.0</ele><time>2026-04-02T16:55:22.98Z</time></trkpt><trkpt lat="45.59656780899194" lon="10.125101101280245"><ele>168.0</ele><time>2026-04-02T16:55:25.98Z</time></trkpt><trkpt lat="45.59655655983699" lon="10.125211341554634"><ele>168.0</ele><time>2026-04-02T16:55:28.98Z</time></trkpt><trkpt lat="45.59656098577993" lon="10.125317854955412"><ele>168.0</ele><time>2026-04-02T16:55:31.98Z</time></trkpt><trkpt lat="45.596550811425814" lon="10.125427043310971"><ele>168.0</ele><time>2026-04-02T16:55:34.98Z</time></trkpt><trkpt lat="45.596549278570755" lon="10.125530543846613"><ele>168.0</ele><time>2026-04-02T16:55:37.98Z</time></trkpt><trkpt lat="45.5965370948725" lon="10.125632017340548"><ele>168.0</ele><time>2026-04-02T16:55:40.98Z</time></trkpt><trkpt lat="45.596542473557264" lon="10.125736497127615"><ele>168.0</ele><time>2026-04-02T16:55:43.98Z</time></trkpt><trkpt lat="45.5965310879688" lon="10.125844688376453"><ele>168.0</ele><time>2026-04-02T16:55:46.98Z</time></trkpt><trkpt lat="45.59652789195007" lon="10.12596696997084"><ele>168.0</ele><time>2026-04-02T16:55:50.98Z</time></trkpt><trkpt lat="45.59652805294134" lon="10.126062724590069"><ele>168.0</ele><time>2026-04-02T16:55:53.98Z</time></trkpt><trkpt lat="45.59653595986346" lon="10.12615276289019"><ele>168.0</ele><time>2026-04-02T16:55:56.98Z</time></trkpt><trkpt lat="45.59653253120758" lon="10.126257431542161"><ele>168.0</ele><time>2026-04-02T16:55:59.98Z</time></trkpt><trkpt lat="45.596524891750875" lon="10.126358555638394"><ele>168.0</ele><time>2026-04-02T16:56:02.98Z</time></trkpt><trkpt lat="45.59651811280228" lon="10.126448149621742"><ele>168.0</ele><time>2026-04-02T16:56:05.98Z</time></trkpt><trkpt lat="45.596513899873294" lon="10.12655133438895"><ele>168.0</ele><time>2026-04-02T16:56:08.98Z</time></trkpt><trkpt lat="45.59650845028503" lon="10.126651702201526"><ele>168.0</ele><time>2026-04-02T16:56:11.98Z</time></trkpt><trkpt lat="45.59650538177321" lon="10.126757313726781"><ele>168.0</ele><time>2026-04-02T16:56:14.98Z</time></trkpt><trkpt lat="45.59649334656135" lon="10.126868462389302"><ele>167.5</ele><time>2026-04-02T16:56:17.98Z</time></trkpt><trkpt lat="45.596491583587756" lon="10.126974721672696"><ele>167.0</ele><time>2026-04-02T16:56:20.98Z</time></trkpt><trkpt lat="45.59648423413702" lon="10.12709010288519"><ele>166.5</ele><time>2026-04-02T16:56:23.98Z</time></trkpt><trkpt lat="45.5964827555493" lon="10.12719341454054"><ele>166.0</ele><time>2026-04-02T16:56:26.98Z</time></trkpt><trkpt lat="45.596473055657164" lon="10.127302870655122"><ele>165.5</ele><time>2026-04-02T16:56:29.98Z</time></trkpt><trkpt lat="45.5964763270609" lon="10.12740689153434"><ele>165.0</ele><time>2026-04-02T16:56:32.98Z</time></trkpt><trkpt lat="45.59648908222425" lon="10.127510379099913"><ele>164.71428571428572</ele><time>2026-04-02T16:56:35.979Z</time></trkpt><trkpt lat="45.59649973126524" lon="10.127616675589342"><ele>164.42857142857144</ele><time>2026-04-02T16:56:38.979Z</time></trkpt><trkpt lat="45.59650374792287" lon="10.127714023216319"><ele>164.14285714285717</ele><time>2026-04-02T16:56:41.979Z</time></trkpt><trkpt lat="45.59651667714054" lon="10.127811197558092"><ele>163.85714285714286</ele><time>2026-04-02T16:56:44.979Z</time></trkpt><trkpt lat="45.59651938835985" lon="10.12790660422285"><ele>163.57142857142856</ele><time>2026-04-02T16:56:47.979Z</time></trkpt><trkpt lat="45.59653782550501" lon="10.12799747022332"><ele>163.2857142857143</ele><time>2026-04-02T16:56:50.979Z</time></trkpt><trkpt lat="45.596555325182756" lon="10.128099196520912"><ele>163.0</ele><time>2026-04-02T16:56:53.979Z</time></trkpt><trkpt lat="45.59657016781767" lon="10.12820055875579"><ele>162.71428571428572</ele><time>2026-04-02T16:56:56.979Z</time></trkpt><trkpt lat="45.59658521830925" lon="10.128294478195716"><ele>162.42857142857142</ele><time>2026-04-02T16:56:59.979Z</time></trkpt><trkpt lat="45.596599000668945" lon="10.128398290222355"><ele>162.14285714285714</ele><time>2026-04-02T16:57:02.979Z</time></trkpt><trkpt lat="45.596610026199784" lon="10.128498989511899"><ele>161.85714285714286</ele><time>2026-04-02T16:57:05.979Z</time></trkpt><trkpt lat="45.596628346519594" lon="10.128596855420797"><ele>161.57142857142856</ele><time>2026-04-02T16:57:08.979Z</time></trkpt><trkpt lat="45.596641499651874" lon="10.1286939443525"><ele>161.28571428571428</ele><time>2026-04-02T16:57:11.979Z</time></trkpt><trkpt lat="45.59665910980585" lon="10.128790325556784"><ele>161.0</ele><time>2026-04-02T16:57:14.979Z</time></trkpt><trkpt lat="45.596672524981265" lon="10.128887332172592"><ele>161.0</ele><time>2026-04-02T16:57:17.979Z</time></trkpt><trkpt lat="45.59668879060795" lon="10.128983929702438"><ele>161.0</ele><time>2026-04-02T16:57:20.979Z</time></trkpt><trkpt lat="45.596696714671324" lon="10.129088908035419"><ele>161.0</ele><time>2026-04-02T16:57:23.979Z</time></trkpt><trkpt lat="45.59673373491512" lon="10.129178430054441"><ele>161.0</ele><time>2026-04-02T16:57:26.979Z</time></trkpt><trkpt lat="45.59676236967552" lon="10.129266958543171"><ele>161.0</ele><time>2026-04-02T16:57:29.979Z</time></trkpt><trkpt lat="45.59678496470096" lon="10.129355440050347"><ele>161.0</ele><time>2026-04-02T16:57:32.979Z</time></trkpt><trkpt lat="45.59679638991144" lon="10.129449861244384"><ele>161.0</ele><time>2026-04-02T16:57:35.979Z</time></trkpt><trkpt lat="45.59681439993569" lon="10.129539193238868"><ele>161.28571428571428</ele><time>2026-04-02T16:57:38.979Z</time></trkpt><trkpt lat="45.596822448798946" lon="10.12964740012386"><ele>161.57142857142856</ele><time>2026-04-02T16:57:41.979Z</time></trkpt><trkpt lat="45.59682115182551" lon="10.129745398180814"><ele>161.85714285714286</ele><time>2026-04-02T16:57:44.978Z</time></trkpt><trkpt lat="45.59681437450234" lon="10.129848185294993"><ele>162.14285714285714</ele><time>2026-04-02T16:57:47.978Z</time></trkpt><trkpt lat="45.596807470632164" lon="10.12994864786655"><ele>162.42857142857142</ele><time>2026-04-02T16:57:50.978Z</time></trkpt><trkpt lat="45.59681417547115" lon="10.130042862064748"><ele>162.71428571428572</ele><time>2026-04-02T16:57:53.978Z</time></trkpt><trkpt lat="45.596809063657915" lon="10.130145716073043"><ele>163.0</ele><time>2026-04-02T16:57:56.978Z</time></trkpt><trkpt lat="45.59679726824996" lon="10.130245738323687"><ele>163.0</ele><time>2026-04-02T16:57:59.978Z</time></trkpt><trkpt lat="45.596797337451335" lon="10.130347009069478"><ele>163.0</ele><time>2026-04-02T16:58:02.978Z</time></trkpt><trkpt lat="45.59679434220162" lon="10.130446038610152"><ele>163.0</ele><time>2026-04-02T16:58:05.978Z</time></trkpt><trkpt lat="45.596772665914614" lon="10.130542329562656"><ele>163.0</ele><time>2026-04-02T16:58:08.978Z</time></trkpt><trkpt lat="45.59675829378041" lon="10.130649774254282"><ele>163.0</ele><time>2026-04-02T16:58:11.978Z</time></trkpt><trkpt lat="45.5967657674965" lon="10.130744488713002"><ele>163.0</ele><time>2026-04-02T16:58:14.978Z</time></trkpt><trkpt lat="45.59676987793107" lon="10.13083936512288"><ele>163.0</ele><time>2026-04-02T16:58:17.978Z</time></trkpt><trkpt lat="45.59677002425949" lon="10.130938749312463"><ele>163.14285714285714</ele><time>2026-04-02T16:58:20.978Z</time></trkpt><trkpt lat="45.59677290945508" lon="10.13103650232795"><ele>163.28571428571428</ele><time>2026-04-02T16:58:23.978Z</time></trkpt><trkpt lat="45.59674655692116" lon="10.131131332680717"><ele>163.42857142857142</ele><time>2026-04-02T16:58:26.978Z</time></trkpt><trkpt lat="45.596732603234415" lon="10.131227263984092"><ele>163.57142857142856</ele><time>2026-04-02T16:58:29.978Z</time></trkpt><trkpt lat="45.59670417949619" lon="10.131316441573938"><ele>163.71428571428572</ele><time>2026-04-02T16:58:32.978Z</time></trkpt><trkpt lat="45.5966803744312" lon="10.131399779502823"><ele>163.85714285714283</ele><time>2026-04-02T16:58:35.978Z</time></trkpt><trkpt lat="45.59666162467541" lon="10.131501998738027"><ele>164.0</ele><time>2026-04-02T16:58:38.978Z</time></trkpt><trkpt lat="45.5966435438039" lon="10.131606283847946"><ele>164.5</ele><time>2026-04-02T16:58:41.978Z</time></trkpt><trkpt lat="45.59663909578315" lon="10.131710849312666"><ele>165.0</ele><time>2026-04-02T16:58:44.978Z</time></trkpt><trkpt lat="45.596640829126024" lon="10.131806128774969"><ele>165.5</ele><time>2026-04-02T16:58:47.978Z</time></trkpt><trkpt lat="45.59658331348095" lon="10.131896737422146"><ele>166.0</ele><time>2026-04-02T16:58:51.978Z</time></trkpt><trkpt lat="45.596554840632685" lon="10.131977902898015"><ele>166.5</ele><time>2026-04-02T16:58:55.978Z</time></trkpt><trkpt lat="45.59651275526713" lon="10.132080812792278"><ele>167.0</ele><time>2026-04-02T16:58:59.978Z</time></trkpt><trkpt lat="45.59643351592316" lon="10.13212557767683"><ele>167.0</ele><time>2026-04-02T16:59:02.978Z</time></trkpt><trkpt lat="45.596358078648144" lon="10.132115561981871"><ele>167.0</ele><time>2026-04-02T16:59:05.978Z</time></trkpt><trkpt lat="45.596290514895756" lon="10.132084362858764"><ele>167.0</ele><time>2026-04-02T16:59:08.978Z</time></trkpt><trkpt lat="45.5962221716068" lon="10.132033440039166"><ele>167.0</ele><time>2026-04-02T16:59:11.978Z</time></trkpt><trkpt lat="45.596155730145846" lon="10.13198835964662"><ele>167.0</ele><time>2026-04-02T16:59:14.978Z</time></trkpt><trkpt lat="45.59608631961367" lon="10.131936572964797"><ele>167.0</ele><time>2026-04-02T16:59:17.978Z</time></trkpt><trkpt lat="45.596007896832" lon="10.131878894155292"><ele>166.66666666666666</ele><time>2026-04-02T16:59:21.978Z</time></trkpt><trkpt lat="45.5959526877611" lon="10.131818280842461"><ele>166.33333333333331</ele><time>2026-04-02T16:59:24.978Z</time></trkpt><trkpt lat="45.595883655527224" lon="10.131771598383237"><ele>166.0</ele><time>2026-04-02T16:59:27.978Z</time></trkpt><trkpt lat="45.59582279260104" lon="10.13170435220322"><ele>165.66666666666666</ele><time>2026-04-02T16:59:30.978Z</time></trkpt><trkpt lat="45.59575914667539" lon="10.131644129865956"><ele>165.33333333333334</ele><time>2026-04-02T16:59:33.978Z</time></trkpt><trkpt lat="45.595695009069175" lon="10.131584887844284"><ele>165.0</ele><time>2026-04-02T16:59:36.978Z</time></trkpt><trkpt lat="45.595619749779345" lon="10.131598534024276"><ele>165.00000000000003</ele><time>2026-04-02T16:59:40.978Z</time></trkpt><trkpt lat="45.595557617660596" lon="10.131631509766974"><ele>165.0</ele><time>2026-04-02T16:59:43.978Z</time></trkpt><trkpt lat="45.595482941808335" lon="10.131620716057936"><ele>165.0</ele><time>2026-04-02T16:59:46.978Z</time></trkpt><trkpt lat="45.59541539698826" lon="10.131619390421182"><ele>165.0</ele><time>2026-04-02T16:59:49.978Z</time></trkpt><trkpt lat="45.59534519775075" lon="10.131604685005698"><ele>165.0</ele><time>2026-04-02T16:59:52.978Z</time></trkpt><trkpt lat="45.595268602551684" lon="10.131590829356558"><ele>165.00000000000003</ele><time>2026-04-02T16:59:55.978Z</time></trkpt><trkpt lat="45.59519983530598" lon="10.131583875030397"><ele>165.0</ele><time>2026-04-02T16:59:58.978Z</time></trkpt><trkpt lat="45.59512306391291" lon="10.131585679553586"><ele>164.2857142857143</ele><time>2026-04-02T17:00:01.978Z</time></trkpt><trkpt lat="45.59505075663419" lon="10.131609389706865"><ele>163.57142857142858</ele><time>2026-04-02T17:00:04.978Z</time></trkpt><trkpt lat="45.59499268828337" lon="10.131661775076152"><ele>162.85714285714286</ele><time>2026-04-02T17:00:07.978Z</time></trkpt><trkpt lat="45.594983036029234" lon="10.131772749940332"><ele>162.14285714285717</ele><time>2026-04-02T17:00:11.978Z</time></trkpt><trkpt lat="45.59496231753076" lon="10.131886560117113"><ele>161.42857142857144</ele><time>2026-04-02T17:00:15.978Z</time></trkpt><trkpt lat="45.59494369302079" lon="10.131977567919785"><ele>160.71428571428572</ele><time>2026-04-02T17:00:18.978Z</time></trkpt><trkpt lat="45.5949208383435" lon="10.132074226527305"><ele>160.0</ele><time>2026-04-02T17:00:21.978Z</time></trkpt><trkpt lat="45.594907615692875" lon="10.132166049889229"><ele>160.0</ele><time>2026-04-02T17:00:24.978Z</time></trkpt><trkpt lat="45.59488917848481" lon="10.132278036770089"><ele>160.0</ele><time>2026-04-02T17:00:27.978Z</time></trkpt><trkpt lat="45.59485937545897" lon="10.132378575307056"><ele>160.0</ele><time>2026-04-02T17:00:30.978Z</time></trkpt><trkpt lat="45.59484329296936" lon="10.132486153543269"><ele>160.0</ele><time>2026-04-02T17:00:33.978Z</time></trkpt><trkpt lat="45.59483494361827" lon="10.132591658097752"><ele>160.0</ele><time>2026-04-02T17:00:36.978Z</time></trkpt><trkpt lat="45.594828916552764" lon="10.132685633563213"><ele>160.0</ele><time>2026-04-02T17:00:39.978Z</time></trkpt><trkpt lat="45.59481889273198" lon="10.13279224040328"><ele>160.0</ele><time>2026-04-02T17:00:42.978Z</time></trkpt><trkpt lat="45.594793845168944" lon="10.132902605169534"><ele>160.16666666666669</ele><time>2026-04-02T17:00:45.977Z</time></trkpt><trkpt lat="45.59476913305911" lon="10.133001741609998"><ele>160.33333333333334</ele><time>2026-04-02T17:00:48.977Z</time></trkpt><trkpt lat="45.59475177654801" lon="10.133102289987344"><ele>160.5</ele><time>2026-04-02T17:00:51.977Z</time></trkpt><trkpt lat="45.59472891365943" lon="10.133198338778277"><ele>160.66666666666666</ele><time>2026-04-02T17:00:54.977Z</time></trkpt><trkpt lat="45.59472288531524" lon="10.133301679642445"><ele>160.83333333333331</ele><time>2026-04-02T17:00:57.977Z</time></trkpt><trkpt lat="45.59470737307803" lon="10.133420857948417"><ele>161.0</ele><time>2026-04-02T17:01:01.977Z</time></trkpt><trkpt lat="45.59469337661776" lon="10.133531798830955"><ele>161.42857142857142</ele><time>2026-04-02T17:01:04.977Z</time></trkpt><trkpt lat="45.59468437929363" lon="10.133630922005455"><ele>161.85714285714286</ele><time>2026-04-02T17:01:07.977Z</time></trkpt><trkpt lat="45.59467150161907" lon="10.133724863978692"><ele>162.28571428571428</ele><time>2026-04-02T17:01:10.977Z</time></trkpt><trkpt lat="45.59466128222636" lon="10.133827514832388"><ele>162.71428571428572</ele><time>2026-04-02T17:01:13.977Z</time></trkpt><trkpt lat="45.594644511802706" lon="10.133931930156084"><ele>163.14285714285714</ele><time>2026-04-02T17:01:16.977Z</time></trkpt><trkpt lat="45.59460587573236" lon="10.13403035641091"><ele>163.57142857142856</ele><time>2026-04-02T17:01:19.977Z</time></trkpt><trkpt lat="45.594583858220396" lon="10.1341282077714"><ele>164.0</ele><time>2026-04-02T17:01:22.977Z</time></trkpt><trkpt lat="45.59457271008527" lon="10.134222102868112"><ele>164.0</ele><time>2026-04-02T17:01:25.977Z</time></trkpt><trkpt lat="45.59455609204548" lon="10.1343211799183"><ele>164.0</ele><time>2026-04-02T17:01:28.977Z</time></trkpt><trkpt lat="45.594543141420644" lon="10.134414863420487"><ele>164.0</ele><time>2026-04-02T17:01:31.977Z</time></trkpt><trkpt lat="45.59451970862028" lon="10.13451266097974"><ele>164.0</ele><time>2026-04-02T17:01:35.977Z</time></trkpt></trkseg></trk></gpx>